Data for 02/11/2007

Time Sea-Level Adjusted Pressure Absolute Pressure Temperature Relative Humidity Dew Point Precipitation   
(mb) (inHg) (mb) (inHg) (C) (F) (%) (C) (F) (mm) (in)
00:01 1013 29.91 842 24.86 -2.9 26.7 85 -5.1 22.8 0
00:02 1013 29.91 842 24.86 -3 26.6 85 -5.2 22.7 0
00:03 1013 29.91 842 24.86 -3 26.7 85 -5.1 22.8 0
00:04 1013 29.91 842 24.86 -3 26.6 85 -5.1 22.8 0
00:05 1013 29.91 842 24.86 -2.9 26.7 85 -5.1 22.8 0
00:06 1013 29.91 842 24.86 -2.9 26.8 85 -5.1 22.8 0
00:07 1013 29.91 842 24.86 -2.7 27.1 85 -5 23 0
00:08 1013 29.91 842 24.86 -2.8 27 85 -5 23 0
00:09 1013 29.91 842 24.86 -2.8 27 85 -4.9 23.1 0
00:10 1013 29.91 842 24.86 -2.8 27 85 -4.9 23.1 0
00:11 1013 29.91 842 24.86 -2.7 27.1 85 -4.8 23.3 0
00:12 1013 29.91 842 24.86 -2.7 27.2 85 -4.8 23.4 0
00:13 1013 29.91 842 24.86 -2.7 27.2 85 -4.8 23.4 0
00:14 1013 29.91 842 24.86 -2.6 27.3 85 -4.7 23.5 0
00:15 1013 29.91 842 24.86 -2.6 27.3 85 -4.7 23.5 0
00:16 1013 29.91 842 24.86 -2.5 27.4 85 -4.7 23.6 0
00:17 1013 29.91 842 24.86 -2.5 27.5 85 -4.7 23.6 0
00:18 1013 29.91 842 24.86 -2.5 27.5 85 -4.6 23.7 0
00:19 1013 29.91 842 24.86 -2.5 27.5 85 -4.7 23.6 0
00:20 1013 29.91 842 24.86 -2.4 27.6 85 -4.6 23.7 0
00:21 1013 29.91 842 24.86 -2.4 27.7 85 -4.6 23.8 0
00:22 1013 29.91 842 24.86 -2.4 27.7 85 -4.5 23.9 0
00:23 1013 29.91 842 24.86 -2.4 27.8 85 -4.6 23.7 0
00:24 1013 29.91 842 24.86 -2.2 28 84 -4.5 23.8 0
00:25 1013 29.91 842 24.86 -2.2 28.1 84 -4.5 23.9 0
00:26 1013 29.91 842 24.86 -2.1 28.2 84 -4.5 23.9 0
00:27 1013 29.91 842 24.86 -2 28.4 82 -4.7 23.6 0
00:28 1013 29.91 842 24.86 -1.9 28.6 82 -4.5 23.9 0
00:29 1013 29.91 842 24.86 -1.8 28.8 81 -4.6 23.7 0
00:30 1013 29.91 842 24.86 -1.7 29 81 -4.6 23.8 0
00:31 1013 29.91 842 24.86 -1.6 29.1 81 -4.5 23.9 0
00:32 1013 29.91 842 24.86 -1.6 29.1 81 -4.5 24 0
00:33 1013 29.91 842 24.86 -1.5 29.2 80 -4.6 23.8 0
00:34 1013 29.91 842 24.86 -1.5 29.3 80 -4.4 24 0
00:35 1013 29.91 842 24.86 -1.5 29.3 81 -4.4 24.1 0
00:36 1013 29.91 842 24.86 -1.5 29.3 81 -4.3 24.2 0
00:37 1013 29.91 842 24.86 -1.5 29.4 81 -4.3 24.3 0
00:38 1013 29.91 842 24.86 -1.5 29.3 82 -4.2 24.4 0
00:39 1013 29.91 842 24.86 -1.5 29.3 81 -4.3 24.3 0
00:40 1013 29.91 842 24.86 -1.5 29.2 81 -4.4 24.1 0
00:41 1013 29.91 842 24.86 -1.5 29.3 81 -4.4 24.2 0
00:42 1013 29.91 842 24.86 -1.5 29.3 81 -4.3 24.3 0
00:43 1012 29.88 842 24.86 -1.5 29.3 82 -4.2 24.4 0
00:44 1012 29.88 842 24.86 -1.5 29.3 82 -4.2 24.5 0
00:45 1012 29.88 842 24.86 -1.5 29.3 82 -4.1 24.5 0
00:46 1012 29.88 842 24.86 -1.5 29.3 81 -4.3 24.3 0
00:47 1012 29.88 842 24.86 -1.4 29.5 81 -4.2 24.5 0
00:48 1012 29.88 842 24.86 -1.4 29.5 81 -4.2 24.4 0
00:49 1012 29.88 842 24.86 -1.4 29.6 81 -4.2 24.5 0
00:50 1012 29.88 842 24.86 -1.3 29.6 80 -4.3 24.3 0
00:51 1012 29.88 842 24.86 -1.3 29.7 80 -4.3 24.3 0
00:52 1012 29.88 841 24.83 -1.3 29.7 82 -4 24.8 0
00:53 1012 29.88 841 24.83 -1.2 29.8 82 -3.9 24.9 0
00:54 1012 29.88 842 24.86 -1.2 29.8 82 -4 24.8 0
00:55 1012 29.88 842 24.86 -1.3 29.7 82 -3.9 25 0
00:56 1012 29.88 842 24.86 -1.3 29.7 82 -3.9 24.9 0
00:57 1012 29.88 842 24.86 -1.3 29.7 82 -4 24.8 0
00:58 1012 29.88 842 24.86 -1.3 29.6 82 -4 24.8 0
00:59 1012 29.88 842 24.86 -1.3 29.7 82 -3.9 24.9 0
01:00 1012 29.88 842 24.86 -1.3 29.6 83 -3.9 25 0
01:01 1012 29.88 842 24.86 -1.3 29.7 83 -3.8 25.2 0
01:02 1012 29.88 842 24.86 -1.3 29.7 84 -3.7 25.3 0
01:03 1012 29.88 842 24.86 -1.4 29.5 84 -3.7 25.3 0
01:04 1012 29.88 842 24.86 -1.4 29.6 85 -3.6 25.5 0
01:05 1012 29.88 842 24.86 -1.4 29.5 85 -3.6 25.5 0
01:06 1012 29.88 842 24.86 -1.4 29.5 85 -3.6 25.5 0
01:07 1012 29.88 842 24.86 -1.4 29.5 86 -3.5 25.7 0
01:08 1012 29.88 841 24.83 -1.4 29.4 85 -3.6 25.6 0
01:09 1012 29.88 841 24.83 -1.4 29.5 84 -3.7 25.3 0
01:10 1012 29.88 841 24.83 -1.3 29.6 84 -3.7 25.3 0
01:11 1012 29.88 841 24.83 -1.3 29.7 83 -3.7 25.3 0
01:12 1012 29.88 841 24.83 -1.2 29.8 83 -3.7 25.3 0
01:13 1012 29.88 841 24.83 -1.2 29.9 83 -3.7 25.3 0
01:14 1012 29.88 841 24.83 -1.1 30.1 83 -3.6 25.5 0
01:15 1012 29.88 841 24.83 -1.1 30.1 82 -3.8 25.2 0
01:16 1012 29.88 841 24.83 -1 30.3 81 -3.9 25 0
01:17 1012 29.88 841 24.83 -0.9 30.4 81 -3.8 25.2 0
01:18 1012 29.88 841 24.83 -0.8 30.5 81 -3.7 25.4 0
01:19 1012 29.88 841 24.83 -0.8 30.6 81 -3.6 25.6 0
01:20 1012 29.88 841 24.83 -0.8 30.6 80 -3.7 25.3 0
01:21 1012 29.88 841 24.83 -0.8 30.6 80 -3.7 25.3 0
01:22 1012 29.88 841 24.83 -0.7 30.7 80 -3.7 25.3 0
01:23 1012 29.88 841 24.83 -0.7 30.7 80 -3.7 25.3 0
01:24 1012 29.88 841 24.83 -0.7 30.8 80 -3.6 25.4 0
01:25 1012 29.88 841 24.83 -0.7 30.8 81 -3.5 25.7 0
01:26 1012 29.88 841 24.83 -0.7 30.7 82 -3.4 25.9 0
01:27 1012 29.88 841 24.83 -0.7 30.7 82 -3.4 25.9 0
01:28 1012 29.88 841 24.83 -0.8 30.6 82 -3.4 25.9 0
01:29 1012 29.88 841 24.83 -0.8 30.6 82 -3.5 25.7 0
01:30 1012 29.88 841 24.83 -0.8 30.6 82 -3.6 25.6 0
01:31 1012 29.88 841 24.83 -0.8 30.6 82 -3.6 25.6 0
01:32 1012 29.88 841 24.83 -0.8 30.6 82 -3.5 25.7 0
01:33 1012 29.88 841 24.83 -0.8 30.6 82 -3.5 25.6 0
01:34 1012 29.88 841 24.83 -0.8 30.6 81 -3.6 25.5 0
01:35 1012 29.88 841 24.83 -0.7 30.7 81 -3.6 25.5 0
01:36 1012 29.88 841 24.83 -0.7 30.7 82 -3.4 25.9 0
01:37 1012 29.88 841 24.83 -0.7 30.7 83 -3.3 26.1 0
01:38 1012 29.88 841 24.83 -0.8 30.6 84 -3.2 26.2 0
01:39 1012 29.88 841 24.83 -0.8 30.6 84 -3.2 26.2 0
01:40 1012 29.88 841 24.83 -0.8 30.6 83 -3.3 26 0
01:41 1012 29.88 841 24.83 -0.8 30.6 82 -3.4 25.8 0
01:42 1012 29.88 841 24.83 -0.8 30.5 83 -3.4 25.8 0
01:43 1012 29.88 841 24.83 -0.8 30.6 83 -3.3 26.1 0
01:44 1012 29.88 841 24.83 -0.8 30.6 84 -3.2 26.2 0
01:45 1012 29.88 841 24.83 -0.8 30.5 83 -3.4 25.9 0
01:46 1012 29.88 841 24.83 -0.8 30.6 82 -3.5 25.7 0
01:47 1012 29.88 841 24.83 -0.8 30.6 80 -3.8 25.2 0
01:48 1012 29.88 841 24.83 -0.7 30.7 79 -3.8 25.1 0
01:49 1012 29.88 841 24.83 -0.7 30.8 80 -3.6 25.5 0
01:50 1012 29.88 841 24.83 -0.7 30.8 82 -3.5 25.8 0
01:51 1012 29.88 841 24.83 -0.7 30.8 81 -3.5 25.6 0
01:52 1012 29.88 841 24.83 -0.7 30.8 80 -3.8 25.2 0
01:53 1012 29.88 841 24.83 -0.6 30.8 79 -3.8 25.1 0
01:54 1012 29.88 841 24.83 -0.6 30.9 80 -3.7 25.3 0
01:55 1012 29.88 841 24.83 -0.6 30.9 80 -3.6 25.6 0
01:56 1012 29.88 841 24.83 -0.6 30.9 80 -3.7 25.4 0
01:57 1012 29.88 841 24.83 -0.6 31 78 -3.9 25 0
01:58 1012 29.88 841 24.83 -0.5 31.1 78 -3.9 25 0
01:59 1012 29.88 841 24.83 -0.5 31.1 78 -3.8 25.2 0
02:00 1012 29.88 841 24.83 -0.4 31.2 79 -3.7 25.4 0
02:01 1012 29.88 841 24.83 -0.4 31.2 77 -3.9 25 0
02:02 1012 29.88 841 24.83 -0.4 31.3 77 -3.9 25 0
02:03 1012 29.88 841 24.83 -0.4 31.3 79 -3.6 25.5 0
02:04 1012 29.88 841 24.83 -0.4 31.3 79 -3.7 25.4 0
02:05 1012 29.88 841 24.83 -0.4 31.3 77 -4 24.8 0
02:06 1012 29.88 841 24.83 -0.3 31.4 75 -4.2 24.4 0
02:07 1012 29.88 841 24.83 -0.2 31.7 75 -4.1 24.7 0
02:08 1012 29.88 841 24.83 -0.1 31.7 75 -4.1 24.6 0
02:09 1012 29.88 841 24.83 -0.1 31.8 75 -4.1 24.7 0
02:10 1012 29.88 841 24.83 -0 31.9 74 -4.2 24.5 0
02:11 1012 29.88 841 24.83 0 32 73 -4.3 24.3 0
02:12 1012 29.88 841 24.83 0.1 32.1 73 -4.3 24.3 0
02:13 1012 29.88 841 24.83 0.1 32.1 73 -4.3 24.2 0
02:14 1012 29.88 841 24.83 0.1 32.2 72 -4.3 24.3 0
02:15 1012 29.88 841 24.83 0.1 32.2 73 -4.2 24.5 0
02:16 1012 29.88 841 24.83 0.1 32.2 73 -4.1 24.6 0
02:17 1012 29.88 841 24.83 0.2 32.3 73 -4.2 24.5 0
02:18 1012 29.88 841 24.83 0.1 32.2 73 -4.2 24.4 0
02:19 1012 29.88 841 24.83 0.2 32.3 72 -4.3 24.3 0
02:20 1012 29.88 841 24.83 0.2 32.4 72 -4.3 24.3 0
02:21 1012 29.88 841 24.83 0.2 32.3 73 -4.2 24.4 0
02:22 1012 29.88 841 24.83 0.2 32.3 73 -4.1 24.6 0
02:23 1012 29.88 841 24.83 0.2 32.3 74 -4 24.8 0
02:24 1012 29.88 841 24.83 0.2 32.3 74 -4 24.8 0
02:25 1012 29.88 841 24.83 0.1 32.2 73 -4.1 24.6 0
02:26 1012 29.88 841 24.83 0.1 32.2 81 -2.8 27 0
02:27 1012 29.88 841 24.83 -0.1 31.9 82 -2.9 26.9 0
02:28 1012 29.88 841 24.83 -0.2 31.6 84 -2.6 27.4 0
02:29 1012 29.88 841 24.83 -0.4 31.3 85 -2.6 27.2 0
02:30 1012 29.88 841 24.83 -0.4 31.2 85 -2.6 27.3 0
02:31 1012 29.88 841 24.83 -0.5 31.1 85 -2.7 27.1 0
02:32 1012 29.88 841 24.83 -0.5 31.1 84 -2.9 26.9 0
02:33 1012 29.88 841 24.83 -0.5 31 83 -3.1 26.4 0
02:34 1012 29.88 841 24.83 -0.5 31.1 83 -3.1 26.4 0
02:35 1012 29.88 841 24.83 -0.5 31.1 83 -3 26.6 0
02:36 1012 29.88 841 24.83 -0.5 31.1 83 -3 26.6 0
02:37 1012 29.88 841 24.83 -0.5 31.1 83 -3.1 26.4 0
02:38 1012 29.88 841 24.83 -0.5 31.2 84 -2.9 26.8 0
02:39 1012 29.88 841 24.83 -0.5 31.2 83 -2.9 26.7 0
02:40 1012 29.88 841 24.83 -0.5 31.1 84 -2.8 27 0
02:41 1012 29.88 841 24.83 -0.5 31.1 85 -2.7 27.2 0
02:42 1012 29.88 841 24.83 -0.6 30.9 85 -2.8 27 0
02:43 1012 29.88 841 24.83 -0.7 30.8 85 -2.8 26.9 0
02:44 1012 29.88 841 24.83 -0.7 30.8 86 -2.7 27.2 0
02:45 1012 29.88 841 24.83 -0.7 30.8 86 -2.7 27.2 0
02:46 1012 29.88 841 24.83 -0.7 30.7 87 -2.7 27.1 0
02:47 1012 29.88 841 24.83 -0.8 30.6 86 -2.7 27.1 0
02:48 1012 29.88 841 24.83 -0.8 30.6 87 -2.7 27.2 0
02:49 1012 29.88 841 24.83 -0.7 30.7 87 -2.6 27.2 0
02:50 1012 29.88 841 24.83 -0.7 30.7 87 -2.7 27.2 0
02:51 1012 29.88 841 24.83 -0.7 30.7 86 -2.7 27.1 0
02:52 1012 29.88 841 24.83 -0.8 30.6 87 -2.7 27.2 0
02:53 1012 29.88 841 24.83 -0.7 30.7 87 -2.7 27.2 0
02:54 1012 29.88 841 24.83 -0.8 30.6 87 -2.7 27.2 0
02:55 1012 29.88 841 24.83 -0.7 30.7 87 -2.6 27.3 0
02:56 1012 29.88 841 24.83 -0.8 30.6 87 -2.6 27.2 0
02:57 1012 29.88 841 24.83 -0.8 30.6 88 -2.6 27.4 0
02:58 1012 29.88 841 24.83 -0.8 30.6 88 -2.5 27.6 0
02:59 1012 29.88 841 24.83 -0.8 30.5 89 -2.4 27.6 0
03:00 1012 29.88 841 24.83 -0.9 30.4 90 -2.4 27.8 0
03:01 1012 29.88 841 24.83 -0.9 30.4 90 -2.3 27.9 0
03:02 1012 29.88 841 24.83 -0.9 30.4 90 -2.3 27.9 0
03:03 1012 29.88 841 24.83 -0.9 30.4 91 -2.2 28 0
03:04 1012 29.88 841 24.83 -0.9 30.4 91 -2.2 28 0
03:05 1012 29.88 841 24.83 -0.9 30.4 91 -2.2 28.1 0
03:06 1012 29.88 841 24.83 -0.9 30.3 91 -2.2 28.1 0
03:07 1012 29.88 841 24.83 -0.9 30.4 91 -2.1 28.2 0
03:08 1012 29.88 841 24.83 -0.9 30.4 92 -2.1 28.2 0
03:09 1012 29.88 841 24.83 -0.9 30.3 92 -2.1 28.2 0
03:10 1012 29.88 841 24.83 -1 30.3 92 -2.1 28.2 0
03:11 1012 29.88 841 24.83 -1 30.3 92 -2.1 28.3 0
03:12 1012 29.88 841 24.83 -1 30.2 93 -2 28.3 0
03:13 1012 29.88 841 24.83 -1 30.2 93 -2 28.3 0
03:14 1012 29.88 841 24.83 -1 30.2 93 -2 28.4 0
03:15 1012 29.88 841 24.83 -1.1 30 93 -2.1 28.3 0
03:16 1012 29.88 841 24.83 -1.1 30 93 -2 28.3 0
03:17 1012 29.88 841 24.83 -1.1 30 94 -2 28.4 0
03:18 1012 29.88 841 24.83 -1.1 30 94 -2 28.4 0
03:19 1012 29.88 841 24.83 -1.1 30 94 -2 28.5 0
03:20 1012 29.88 841 24.83 -1.1 30 94 -2 28.5 0
03:21 1012 29.88 841 24.83 -1.1 30 94 -1.9 28.5 0
03:22 1012 29.88 841 24.83 -1.1 30 94 -1.9 28.6 0
03:23 1012 29.88 841 24.83 -1.2 29.9 94 -1.9 28.5 0
03:24 1012 29.88 841 24.83 -1.1 30 95 -1.9 28.6 0
03:25 1012 29.88 841 24.83 -1.1 29.9 95 -1.9 28.6 0
03:26 1012 29.88 841 24.83 -1.1 30 95 -1.9 28.7 0
03:27 1012 29.88 841 24.83 -1.1 30 95 -1.9 28.7 0
03:28 1012 29.88 841 24.83 -1.1 30 95 -1.8 28.7 0
03:29 1012 29.88 841 24.83 -1.1 30 95 -1.8 28.7 0
03:30 1012 29.88 841 24.83 -1.1 30.1 95 -1.8 28.8 0
03:31 1012 29.88 841 24.83 -1.1 30 95 -1.8 28.8 0
03:32 1012 29.88 841 24.83 -1.1 30 95 -1.8 28.8 0
03:33 1012 29.88 841 24.83 -1.1 30 95 -1.7 28.9 0
03:34 1012 29.88 841 24.83 -1.1 30 95 -1.7 28.9 0
03:35 1012 29.88 841 24.83 -1.1 30.1 96 -1.7 29 0
03:36 1012 29.88 841 24.83 -1.1 30.1 96 -1.7 29 0
03:37 1012 29.88 841 24.83 -1.1 30 96 -1.7 28.9 0
03:38 1012 29.88 841 24.83 -1.1 30.1 96 -1.7 29 0
03:39 1012 29.88 841 24.83 -1.1 30.1 96 -1.6 29.1 0
03:40 1012 29.88 841 24.83 -1 30.1 96 -1.6 29.1 0
03:41 1012 29.88 841 24.83 -1 30.2 96 -1.5 29.2 0
03:42 1012 29.88 841 24.83 -1 30.2 96 -1.5 29.3 0
03:43 1012 29.88 841 24.83 -1 30.2 96 -1.5 29.3 0
03:44 1011 29.85 841 24.83 -0.9 30.3 97 -1.4 29.4 0
03:45 1011 29.85 841 24.83 -0.9 30.4 97 -1.4 29.5 0
03:46 1011 29.85 841 24.83 -0.8 30.5 97 -1.3 29.7 0
03:47 1011 29.85 841 24.83 -0.8 30.5 97 -1.2 29.8 0
03:48 1011 29.85 841 24.83 -0.8 30.6 97 -1.2 29.8 0
03:49 1011 29.85 841 24.83 -0.8 30.6 97 -1.2 29.9 0
03:50 1011 29.85 841 24.83 -0.7 30.7 97 -1.1 30 0
03:51 1011 29.85 841 24.83 -0.7 30.8 97 -1.1 30.1 0
03:52 1011 29.85 841 24.83 -0.6 30.9 97 -1 30.1 0
03:53 1011 29.85 841 24.83 -0.6 30.9 97 -1 30.2 0
03:54 1011 29.85 841 24.83 -0.6 30.9 97 -1 30.2 0
03:55 1011 29.85 841 24.83 -0.6 31 97 -1 30.3 0
03:56 1011 29.85 841 24.83 -0.5 31 97 -0.9 30.3 0
03:57 1011 29.85 841 24.83 -0.6 31 97 -1 30.3 0
03:58 1011 29.85 841 24.83 -0.6 31 97 -1 30.2 0
03:59 1011 29.85 841 24.83 -0.6 31 97 -1 30.3 0
04:00 1011 29.85 841 24.83 -0.5 31.1 97 -0.9 30.3 0
04:01 1011 29.85 841 24.83 -0.5 31.1 97 -0.9 30.3 0
04:02 1011 29.85 841 24.83 -0.5 31 97 -0.9 30.3 0
04:03 1011 29.85 841 24.83 -0.5 31 97 -0.9 30.3 0
04:04 1011 29.85 841 24.83 -0.5 31.1 97 -0.9 30.4 0
04:05 1011 29.85 841 24.83 -0.5 31.2 97 -0.8 30.5 0
04:06 1011 29.85 840 24.81 -0.5 31.1 97 -0.9 30.5 0
04:07 1011 29.85 841 24.83 -0.5 31.1 97 -0.9 30.4 0
04:08 1011 29.85 840 24.81 -0.5 31.1 97 -0.8 30.5 0
04:09 1011 29.85 840 24.81 -0.4 31.2 97 -0.8 30.5 0
04:10 1011 29.85 840 24.81 -0.5 31.2 97 -0.8 30.5 0
04:11 1011 29.85 841 24.83 -0.4 31.2 97 -0.8 30.6 0
04:12 1011 29.85 841 24.83 -0.4 31.2 97 -0.8 30.5 0
04:13 1011 29.85 841 24.83 -0.4 31.2 98 -0.8 30.6 0
04:14 1011 29.85 841 24.83 -0.4 31.2 98 -0.8 30.6 0
04:15 1011 29.85 841 24.83 -0.4 31.2 98 -0.8 30.6 0
04:16 1011 29.85 841 24.83 -0.4 31.3 98 -0.7 30.7 0
04:17 1011 29.85 841 24.83 -0.4 31.4 98 -0.7 30.7 0
04:18 1011 29.85 841 24.83 -0.4 31.3 98 -0.7 30.7 0
04:19 1011 29.85 840 24.81 -0.3 31.4 98 -0.7 30.8 0
04:20 1011 29.85 840 24.81 -0.3 31.4 98 -0.7 30.8 0
04:21 1011 29.85 840 24.81 -0.4 31.4 98 -0.7 30.8 0
04:22 1011 29.85 840 24.81 -0.3 31.4 98 -0.6 30.8 0
04:23 1011 29.85 840 24.81 -0.3 31.4 98 -0.7 30.8 0
04:24 1011 29.85 840 24.81 -0.3 31.4 98 -0.7 30.8 0
04:25 1011 29.85 840 24.81 -0.4 31.3 98 -0.7 30.7 0
04:26 1011 29.85 840 24.81 -0.3 31.4 98 -0.7 30.8 0
04:27 1011 29.85 840 24.81 -0.3 31.4 98 -0.6 30.8 0
04:28 1011 29.85 840 24.81 -0.3 31.4 98 -0.6 30.8 0
04:29 1011 29.85 840 24.81 -0.3 31.4 98 -0.6 30.8 0
04:30 1011 29.85 840 24.81 -0.3 31.5 98 -0.6 30.9 0
04:31 1011 29.85 840 24.81 -0.3 31.4 98 -0.6 30.9 0
04:32 1011 29.85 840 24.81 -0.3 31.5 98 -0.6 30.9 0
04:33 1011 29.85 840 24.81 -0.3 31.5 98 -0.6 30.9 0
04:34 1011 29.85 840 24.81 -0.3 31.4 98 -0.6 30.9 0
04:35 1011 29.85 840 24.81 -0.3 31.5 98 -0.6 30.9 0
04:36 1011 29.85 840 24.81 -0.3 31.4 98 -0.6 30.8 0
04:37 1011 29.85 840 24.81 -0.3 31.4 98 -0.6 30.9 0
04:38 1011 29.85 840 24.81 -0.3 31.5 98 -0.6 30.9 0
04:39 1011 29.85 840 24.81 -0.3 31.4 98 -0.7 30.8 0
04:40 1011 29.85 840 24.81 -0.3 31.5 98 -0.6 30.9 0
04:41 1011 29.85 840 24.81 -0.3 31.4 98 -0.6 30.9 0
04:42 1011 29.85 840 24.81 -0.3 31.4 98 -0.6 30.9 0
04:43 1011 29.85 840 24.81 -0.3 31.4 98 -0.6 30.9 0
04:44 1011 29.85 840 24.81 -0.3 31.5 98 -0.6 30.9 0
04:45 1011 29.85 840 24.81 -0.3 31.4 98 -0.6 30.9 0
04:46 1011 29.85 840 24.81 -0.3 31.5 98 -0.6 30.9 0
04:47 1011 29.85 840 24.81 -0.3 31.5 98 -0.6 30.9 0
04:48 1011 29.85 840 24.81 -0.3 31.5 98 -0.6 30.9 0
04:49 1011 29.85 840 24.81 -0.3 31.5 98 -0.6 30.9 0
04:50 1011 29.85 840 24.81 -0.3 31.4 98 -0.6 30.8 0
04:51 1011 29.85 840 24.81 -0.3 31.5 98 -0.6 30.9 0
04:52 1011 29.85 840 24.81 -0.3 31.5 98 -0.6 31 0
04:53 1011 29.85 840 24.81 -0.3 31.5 98 -0.6 30.9 0
04:54 1011 29.85 840 24.81 -0.3 31.5 98 -0.6 31 0
04:55 1011 29.85 840 24.81 -0.3 31.5 98 -0.6 31 0
04:56 1011 29.85 840 24.81 -0.3 31.5 98 -0.6 31 0
04:57 1011 29.85 840 24.81 -0.3 31.5 98 -0.6 31 0
04:58 1011 29.85 841 24.83 -0.3 31.5 98 -0.5 31 0
04:59 1011 29.85 841 24.83 -0.2 31.6 98 -0.5 31.1 0
05:00 1011 29.85 841 24.83 -0.2 31.6 98 -0.5 31 0
05:01 1011 29.85 841 24.83 -0.2 31.6 98 -0.5 31.1 0
05:02 1011 29.85 841 24.83 -0.2 31.6 98 -0.5 31.1 0
05:03 1011 29.85 841 24.83 -0.3 31.5 98 -0.5 31 0
05:04 1011 29.85 841 24.83 -0.2 31.6 98 -0.5 31 0
05:05 1012 29.88 841 24.83 -0.2 31.6 98 -0.5 31.1 0
05:06 1011 29.85 841 24.83 -0.2 31.6 98 -0.5 31 0
05:07 1011 29.85 841 24.83 -0.3 31.5 98 -0.5 31 0
05:08 1012 29.88 841 24.83 -0.3 31.5 98 -0.6 31 0
05:09 1012 29.88 841 24.83 -0.2 31.6 98 -0.5 31 0
05:10 1012 29.88 841 24.83 -0.2 31.6 98 -0.5 31.1 0
05:11 1012 29.88 841 24.83 -0.2 31.6 98 -0.5 31.1 0
05:12 1012 29.88 841 24.83 -0.2 31.6 98 -0.5 31.1 0
05:13 1012 29.88 841 24.83 -0.2 31.6 98 -0.5 31.1 0
05:14 1012 29.88 841 24.83 -0.2 31.6 98 -0.5 31.1 0
05:15 1012 29.88 841 24.83 -0.2 31.7 98 -0.5 31.1 0
05:16 1012 29.88 841 24.83 -0.2 31.6 98 -0.5 31.1 0
05:17 1012 29.88 841 24.83 -0.2 31.7 98 -0.5 31.2 0
05:18 1012 29.88 841 24.83 -0.2 31.7 98 -0.5 31.1 0
05:19 1012 29.88 841 24.83 -0.2 31.7 98 -0.5 31.1 0
05:20 1012 29.88 841 24.83 -0.2 31.7 98 -0.5 31.1 0
05:21 1012 29.88 841 24.83 -0.1 31.8 98 -0.4 31.2 0
05:22 1012 29.88 841 24.83 -0.2 31.7 98 -0.5 31.2 0
05:23 1012 29.88 841 24.83 -0.2 31.7 98 -0.5 31.2 0
05:24 1012 29.88 841 24.83 -0.1 31.8 98 -0.4 31.2 0
05:25 1012 29.88 841 24.83 -0.1 31.8 98 -0.4 31.2 0
05:26 1012 29.88 841 24.83 -0.1 31.8 98 -0.4 31.2 0
05:27 1012 29.88 841 24.83 -0.1 31.8 98 -0.4 31.3 0
05:28 1012 29.88 841 24.83 -0.1 31.8 98 -0.4 31.2 0
05:29 1012 29.88 841 24.83 -0.1 31.8 98 -0.4 31.2 0
05:30 1012 29.88 841 24.83 -0.1 31.8 98 -0.4 31.2 0
05:31 1012 29.88 841 24.83 -0.1 31.9 98 -0.4 31.3 0
05:32 1012 29.88 841 24.83 -0.1 31.8 98 -0.4 31.2 0
05:33 1012 29.88 841 24.83 -0.1 31.8 98 -0.4 31.2 0
05:34 1012 29.88 841 24.83 -0.1 31.8 98 -0.4 31.2 0
05:35 1012 29.88 841 24.83 -0.1 31.9 97 -0.4 31.2 0
05:36 1012 29.88 841 24.83 -0.1 31.8 98 -0.4 31.2 0
05:37 1012 29.88 841 24.83 -0.1 31.9 98 -0.4 31.3 0
05:38 1012 29.88 841 24.83 -0.1 31.8 98 -0.4 31.2 0
05:39 1012 29.88 841 24.83 -0.1 31.9 98 -0.4 31.3 0
05:40 1012 29.88 841 24.83 -0 31.9 98 -0.4 31.3 0
05:41 1012 29.88 841 24.83 -0.1 31.9 98 -0.4 31.2 0
05:42 1012 29.88 841 24.83 -0.1 31.9 98 -0.4 31.3 0
05:43 1012 29.88 841 24.83 -0 32 97 -0.4 31.3 0
05:44 1012 29.88 841 24.83 -0 31.9 97 -0.4 31.3 0
05:45 1012 29.88 841 24.83 -0 32 97 -0.4 31.3 0
05:46 1012 29.88 841 24.83 -0 31.9 97 -0.4 31.3 0
05:47 1012 29.88 841 24.83 -0 32 97 -0.4 31.3 0
05:48 1012 29.88 841 24.83 0 32 97 -0.4 31.3 0
05:49 1012 29.88 841 24.83 0 32.1 97 -0.4 31.3 0
05:50 1011 29.85 841 24.83 0 32 97 -0.4 31.3 0
05:51 1011 29.85 841 24.83 0 32 97 -0.4 31.3 0
05:52 1011 29.85 841 24.83 0 32 97 -0.4 31.4 0
05:53 1011 29.85 841 24.83 0 32 97 -0.4 31.3 0
05:54 1011 29.85 841 24.83 0 32 97 -0.4 31.3 0
05:55 1011 29.85 841 24.83 0 32 97 -0.4 31.3 0
05:56 1011 29.85 840 24.81 0.1 32.1 97 -0.4 31.3 0
05:57 1011 29.85 840 24.81 0 32.1 97 -0.4 31.3 0
05:58 1011 29.85 840 24.81 0 32 97 -0.4 31.2 0
05:59 1011 29.85 840 24.81 0 32 97 -0.4 31.2 0
06:00 1011 29.85 840 24.81 -0 32 97 -0.4 31.2 0
06:01 1011 29.85 840 24.81 -0 32 97 -0.4 31.2 0
06:02 1011 29.85 840 24.81 -0 32 97 -0.4 31.2 0
06:03 1011 29.85 840 24.81 -0 31.9 97 -0.4 31.2 0
06:04 1011 29.85 840 24.81 -0 32 97 -0.4 31.2 0
06:05 1011 29.85 840 24.81 -0 32 97 -0.4 31.2 0
06:06 1011 29.85 840 24.81 0 32 97 -0.4 31.3 0
06:07 1011 29.85 840 24.81 0 32 97 -0.4 31.2 0
06:08 1011 29.85 840 24.81 -0 32 97 -0.5 31.2 0
06:09 1011 29.85 840 24.81 0 32 97 -0.4 31.2 0
06:10 1011 29.85 840 24.81 -0 31.9 97 -0.5 31.1 0
06:11 1011 29.85 840 24.81 0 32 97 -0.4 31.2 0
06:12 1011 29.85 840 24.81 -0.1 31.9 97 -0.5 31.1 0
06:13 1011 29.85 840 24.81 -0.1 31.9 97 -0.5 31.1 0
06:14 1011 29.85 840 24.81 -0.1 31.8 97 -0.5 31.1 0
06:15 1011 29.85 840 24.81 -0.1 31.9 97 -0.5 31.1 0
06:16 1011 29.85 840 24.81 -0.1 31.9 97 -0.5 31.1 0
06:17 1011 29.85 840 24.81 -0 31.9 97 -0.5 31.1 0
06:18 1011 29.85 840 24.81 -0 31.9 97 -0.5 31.1 0
06:19 1011 29.85 840 24.81 -0 31.9 97 -0.5 31.1 0
06:20 1011 29.85 840 24.81 -0.1 31.9 97 -0.5 31.1 0
06:21 1011 29.85 840 24.81 -0 31.9 97 -0.5 31.1 0
06:22 1011 29.85 840 24.81 -0 32 97 -0.5 31.1 0
06:23 1011 29.85 840 24.81 -0 31.9 97 -0.5 31.1 0
06:24 1011 29.85 840 24.81 -0 32 97 -0.5 31.1 0
06:25 1011 29.85 840 24.81 -0 32 97 -0.5 31.1 0
06:26 1011 29.85 840 24.81 -0 32 96 -0.5 31.1 0
06:27 1011 29.85 840 24.81 -0 32 96 -0.5 31.1 0
06:28 1011 29.85 840 24.81 -0 31.9 96 -0.5 31 0
06:29 1011 29.85 840 24.81 -0 31.9 96 -0.5 31 0
06:30 1011 29.85 840 24.81 -0.1 31.9 96 -0.6 30.9 0
06:31 1011 29.85 840 24.81 -0 31.9 96 -0.6 31 0
06:32 1011 29.85 840 24.81 -0.1 31.9 96 -0.6 30.9 0
06:33 1011 29.85 840 24.81 -0.1 31.8 96 -0.6 30.9 0
06:34 1011 29.85 840 24.81 -0.1 31.8 96 -0.6 30.9 0
06:35 1011 29.85 840 24.81 -0.1 31.8 96 -0.6 30.9 0
06:36 1011 29.85 840 24.81 -0.2 31.7 96 -0.7 30.7 0
06:37 1011 29.85 840 24.81 -0.2 31.7 96 -0.7 30.7 0
06:38 1011 29.85 840 24.81 -0.2 31.6 96 -0.8 30.6 0
06:39 1011 29.85 840 24.81 -0.2 31.6 96 -0.8 30.6 0
06:40 1011 29.85 840 24.81 -0.3 31.5 96 -0.8 30.5 0
06:41 1011 29.85 840 24.81 -0.3 31.4 96 -0.9 30.4 0
06:42 1011 29.85 840 24.81 -0.4 31.4 96 -0.9 30.4 0
06:43 1011 29.85 840 24.81 -0.4 31.3 96 -0.9 30.4 0
06:44 1011 29.85 840 24.81 -0.4 31.2 96 -0.9 30.3 0
06:45 1011 29.85 840 24.81 -0.4 31.2 96 -0.9 30.3 0
06:46 1011 29.85 840 24.81 -0.5 31.2 97 -0.9 30.3 0
06:47 1011 29.85 840 24.81 -0.4 31.2 97 -0.9 30.3 0
06:48 1011 29.85 840 24.81 -0.5 31.1 96 -1 30.1 0
06:49 1011 29.85 840 24.81 -0.6 30.9 96 -1.2 29.9 0
06:50 1011 29.85 840 24.81 -0.7 30.7 96 -1.4 29.6 0
06:51 1011 29.85 840 24.81 -0.9 30.4 95 -1.5 29.3 0
06:52 1011 29.85 840 24.81 -1 30.2 95 -1.6 29.1 0
06:53 1011 29.85 840 24.81 -1.2 29.8 95 -1.9 28.5 0
06:54 1011 29.85 840 24.81 -1.4 29.4 95 -2.2 28.1 0
06:55 1011 29.85 840 24.81 -1.7 29 94 -2.5 27.6 0
06:56 1011 29.85 840 24.81 -2 28.5 94 -2.8 26.9 0
06:57 1011 29.85 840 24.81 -2.2 28.1 94 -3 26.6 0
06:58 1011 29.85 840 24.81 -2.4 27.7 95 -3.1 26.4 0
06:59 1011 29.85 840 24.81 -2.5 27.5 95 -3.2 26.3 0
07:00 1011 29.85 840 24.81 -2.6 27.3 96 -3.2 26.2 0
07:01 1011 29.85 840 24.81 -2.7 27.2 96 -3.2 26.2 0
07:02 1011 29.85 840 24.81 -2.7 27.2 97 -3.1 26.3 0
07:03 1011 29.85 840 24.81 -2.7 27.2 97 -3.1 26.4 0
07:04 1011 29.85 840 24.81 -2.6 27.3 98 -2.9 26.7 0
07:05 1011 29.85 840 24.81 -2.5 27.5 98 -2.8 27 0
07:06 1011 29.85 840 24.81 -2.4 27.7 98 -2.6 27.3 0
07:07 1011 29.85 840 24.81 -2.1 28.2 99 -2.3 27.9 0
07:08 1011 29.85 840 24.81 -2.2 28.1 98 -2.4 27.7 0
07:09 1011 29.85 840 24.81 -2.3 27.8 98 -2.7 27.2 0
07:10 1011 29.85 840 24.81 -2.5 27.6 98 -2.8 26.9 0
07:11 1011 29.85 840 24.81 -2.5 27.5 98 -2.8 27 0
07:12 1011 29.85 840 24.81 -2.4 27.6 98 -2.7 27.2 0
07:13 1011 29.85 840 24.81 -2.4 27.8 99 -2.5 27.4 0
07:14 1011 29.85 840 24.81 -2.3 27.9 99 -2.5 27.5 0
07:15 1011 29.85 840 24.81 -2.4 27.7 98 -2.6 27.3 0
07:16 1011 29.85 840 24.81 -2.4 27.6 98 -2.7 27.2 0
07:17 1011 29.85 840 24.81 -2.5 27.5 98 -2.8 27 0
07:18 1011 29.85 840 24.81 -2.7 27.2 98 -3 26.6 0
07:19 1011 29.85 840 24.81 -2.8 26.9 98 -3.1 26.4 0
07:20 1011 29.85 840 24.81 -2.9 26.8 98 -3.1 26.3 0
07:21 1011 29.85 840 24.81 -2.9 26.8 98 -3.1 26.4 0
07:22 1011 29.85 840 24.81 -2.9 26.8 98 -3.1 26.4 0
07:23 1011 29.85 840 24.81 -2.9 26.8 99 -3.1 26.4 0
07:24 1011 29.85 840 24.81 -3 26.7 99 -3.1 26.3 0
07:25 1011 29.85 840 24.81 -2.9 26.8 99 -3.1 26.5 0
07:26 1011 29.85 840 24.81 -2.9 26.8 99 -3.1 26.5 0
07:27 1011 29.85 840 24.81 -2.9 26.8 99 -3.1 26.5 0
07:28 1011 29.85 840 24.81 -2.9 26.8 99 -3 26.5 0
07:29 1011 29.85 840 24.81 -2.8 26.9 99 -3 26.7 0
07:30 1011 29.85 840 24.81 -2.8 27 99 -2.9 26.7 0
07:31 1011 29.85 840 24.81 -2.8 27 99 -2.9 26.7 0
07:32 1011 29.85 840 24.81 -2.8 27 99 -2.9 26.8 0
07:33 1011 29.85 840 24.81 -2.8 27.1 99 -2.9 26.8 0
07:34 1011 29.85 840 24.81 -2.7 27.2 99 -2.8 27 0
07:35 1011 29.85 840 24.81 -2.6 27.3 99 -2.7 27.2 0
07:36 1011 29.85 840 24.81 -2.4 27.7 99 -2.5 27.5 0
07:37 1011 29.85 840 24.81 -2.3 27.8 100 -2.4 27.7 0
07:38 1011 29.85 840 24.81 -2.2 28 100 -2.3 27.9 0
07:39 1011 29.85 840 24.81 -2.1 28.1 100 -2.2 28 0
07:40 1011 29.85 841 24.83 -2.1 28.3 99 -2.2 28.1 0
07:41 1011 29.85 841 24.83 -2 28.4 99 -2.1 28.2 0
07:42 1011 29.85 841 24.83 -2 28.4 99 -2.1 28.2 0
07:43 1011 29.85 841 24.83 -2 28.5 99 -2 28.3 0
07:44 1011 29.85 841 24.83 -1.9 28.6 99 -2 28.4 0
07:45 1011 29.85 841 24.83 -1.9 28.6 99 -2 28.4 0
07:46 1011 29.85 841 24.83 -1.9 28.7 99 -2 28.4 0
07:47 1011 29.85 841 24.83 -1.9 28.6 99 -2 28.3 0
07:48 1011 29.85 841 24.83 -1.9 28.6 99 -2 28.3 0
07:49 1011 29.85 841 24.83 -1.9 28.6 99 -2 28.3 0
07:50 1011 29.85 841 24.83 -1.9 28.6 99 -2.1 28.3 0
07:51 1012 29.88 841 24.83 -1.9 28.6 99 -2.1 28.2 0
07:52 1012 29.88 841 24.83 -1.9 28.6 99 -2.1 28.3 0
07:53 1012 29.88 841 24.83 -1.9 28.6 99 -2.1 28.3 0
07:54 1012 29.88 841 24.83 -1.9 28.6 99 -2.1 28.3 0
07:55 1012 29.88 841 24.83 -1.8 28.7 99 -2 28.3 0
07:56 1012 29.88 841 24.83 -1.8 28.7 98 -2.1 28.3 0
07:57 1012 29.88 841 24.83 -1.9 28.6 98 -2.1 28.2 0
07:58 1012 29.88 841 24.83 -1.9 28.5 98 -2.2 28.1 0
07:59 1012 29.88 841 24.83 -1.9 28.5 98 -2.2 28 0
08:00 1012 29.88 841 24.83 -2 28.5 98 -2.2 28 0
08:01 1012 29.88 841 24.83 -2 28.5 98 -2.2 28 0
08:02 1012 29.88 841 24.83 -1.9 28.5 98 -2.2 28 0
08:03 1012 29.88 841 24.83 -1.9 28.6 98 -2.1 28.2 0
08:04 1012 29.88 841 24.83 -1.8 28.8 98 -2.1 28.3 0
08:05 1012 29.88 841 24.83 -1.8 28.7 98 -2.2 28.1 0
08:06 1012 29.88 841 24.83 -1.9 28.6 98 -2.2 28 0
08:07 1012 29.88 841 24.83 -1.9 28.5 98 -2.3 27.9 0
08:08 1012 29.88 841 24.83 -1.9 28.5 97 -2.3 27.9 0
08:09 1012 29.88 841 24.83 -2 28.5 97 -2.3 27.8 0
08:10 1012 29.88 841 24.83 -1.9 28.5 97 -2.3 27.8 0
08:11 1012 29.88 841 24.83 -1.9 28.5 97 -2.3 27.9 0
08:12 1012 29.88 841 24.83 -2 28.5 97 -2.3 27.8 0
08:13 1012 29.88 841 24.83 -1.9 28.6 97 -2.2 28 0
08:14 1012 29.88 841 24.83 -1.9 28.6 97 -2.3 27.9 0
08:15 1012 29.88 841 24.83 -1.9 28.6 97 -2.2 28 0
08:16 1012 29.88 841 24.83 -1.9 28.6 97 -2.3 27.9 0
08:17 1012 29.88 841 24.83 -1.9 28.7 97 -2.2 28 0
08:18 1012 29.88 841 24.83 -1.9 28.6 97 -2.3 27.9 0
08:19 1012 29.88 841 24.83 -1.9 28.6 97 -2.3 27.9 0
08:20 1012 29.88 841 24.83 -1.8 28.8 98 -2.1 28.2 0
08:21 1012 29.88 841 24.83 -1.7 28.9 97 -2.1 28.2 0
08:22 1012 29.88 841 24.83 -1.7 28.9 97 -2.1 28.2 0
08:23 1012 29.88 841 24.83 -1.7 28.9 97 -2.1 28.2 0
08:24 1012 29.88 841 24.83 -1.7 28.9 97 -2.1 28.1 0
08:25 1012 29.88 841 24.83 -1.7 28.9 97 -2.1 28.2 0
08:26 1012 29.88 841 24.83 -1.7 29 97 -2.1 28.3 0
08:27 1012 29.88 841 24.83 -1.7 28.9 97 -2.1 28.3 0
08:28 1012 29.88 841 24.83 -1.6 29.1 98 -2 28.4 0
08:29 1012 29.88 841 24.83 -1.6 29.2 98 -1.9 28.6 0
08:30 1012 29.88 841 24.83 -1.5 29.3 97 -1.9 28.6 0
08:31 1012 29.88 841 24.83 -1.5 29.3 97 -1.9 28.6 0
08:32 1012 29.88 841 24.83 -1.5 29.3 97 -1.9 28.6 0
08:33 1012 29.88 841 24.83 -1.4 29.5 97 -1.8 28.8 0
08:34 1012 29.88 841 24.83 -1.4 29.5 97 -1.8 28.8 0
08:35 1012 29.88 841 24.83 -1.3 29.7 97 -1.7 28.9 0
08:36 1012 29.88 841 24.83 -1.3 29.7 97 -1.7 28.9 0
08:37 1012 29.88 841 24.83 -1.3 29.7 97 -1.7 28.9 0
08:38 1012 29.88 841 24.83 -1.2 29.8 96 -1.8 28.8 0
08:39 1012 29.88 841 24.83 -1.2 29.8 96 -1.8 28.8 0
08:40 1012 29.88 841 24.83 -1.2 29.9 96 -1.7 28.9 0
08:41 1012 29.88 841 24.83 -1.1 30 96 -1.6 29.1 0
08:42 1012 29.88 841 24.83 -1 30.1 96 -1.5 29.2 0
08:43 1012 29.88 841 24.83 -1 30.3 96 -1.5 29.3 0
08:44 1012 29.88 841 24.83 -0.9 30.3 96 -1.5 29.3 0
08:45 1012 29.88 841 24.83 -0.9 30.4 96 -1.5 29.4 0
08:46 1012 29.88 841 24.83 -0.9 30.5 96 -1.4 29.5 0
08:47 1012 29.88 841 24.83 -0.8 30.5 96 -1.4 29.5 0
08:48 1012 29.88 841 24.83 -0.8 30.6 96 -1.4 29.5 0
08:49 1012 29.88 841 24.83 -0.8 30.6 96 -1.3 29.6 0
08:50 1012 29.88 841 24.83 -0.7 30.7 96 -1.3 29.6 0
08:51 1012 29.88 841 24.83 -0.8 30.6 95 -1.5 29.4 0
08:52 1011 29.85 841 24.83 -0.8 30.6 95 -1.5 29.4 0
08:53 1012 29.88 841 24.83 -0.8 30.5 95 -1.5 29.3 0
08:54 1012 29.88 841 24.83 -0.9 30.5 95 -1.5 29.3 0
08:55 1012 29.88 841 24.83 -0.8 30.5 96 -1.5 29.4 0
08:56 1012 29.88 841 24.83 -0.8 30.6 96 -1.4 29.5 0
08:57 1012 29.88 841 24.83 -0.8 30.6 96 -1.4 29.5 0
08:58 1012 29.88 841 24.83 -0.7 30.7 96 -1.3 29.7 0
08:59 1012 29.88 841 24.83 -0.7 30.8 96 -1.2 29.8 0
09:00 1011 29.85 841 24.83 -0.6 30.9 96 -1.2 29.9 0
09:01 1011 29.85 841 24.83 -0.6 31 96 -1.1 30 0
09:02 1011 29.85 841 24.83 -0.5 31.1 96 -1 30.1 0
09:03 1011 29.85 841 24.83 -0.4 31.2 96 -0.9 30.3 0
09:04 1011 29.85 841 24.83 -0.4 31.3 96 -0.9 30.4 0
09:05 1011 29.85 841 24.83 -0.3 31.5 96 -0.9 30.5 0
09:06 1011 29.85 841 24.83 -0.3 31.5 96 -0.8 30.5 0
09:07 1011 29.85 841 24.83 -0.2 31.6 96 -0.8 30.6 0
09:08 1011 29.85 841 24.83 -0.2 31.6 96 -0.8 30.6 0
09:09 1011 29.85 841 24.83 -0.2 31.7 96 -0.7 30.7 0
09:10 1011 29.85 841 24.83 -0.2 31.7 96 -0.7 30.7 0
09:11 1011 29.85 841 24.83 -0.2 31.7 96 -0.7 30.7 0
09:12 1011 29.85 841 24.83 -0.2 31.7 96 -0.7 30.7 0
09:13 1011 29.85 841 24.83 -0.2 31.7 96 -0.7 30.7 0
09:14 1011 29.85 841 24.83 -0.1 31.7 96 -0.7 30.7 0
09:15 1011 29.85 841 24.83 -0.1 31.8 96 -0.6 30.9 0
09:16 1011 29.85 841 24.83 -0.1 31.8 96 -0.7 30.7 0
09:17 1011 29.85 841 24.83 -0.1 31.9 96 -0.7 30.8 0
09:18 1011 29.85 841 24.83 -0.1 31.9 95 -0.7 30.7 0
09:19 1011 29.85 841 24.83 -0 31.9 95 -0.7 30.7 0
09:20 1011 29.85 841 24.83 -0 31.9 95 -0.7 30.7 0
09:21 1011 29.85 841 24.83 -0 32 95 -0.7 30.8 0
09:22 1011 29.85 841 24.83 0.1 32.1 95 -0.6 30.9 0
09:23 1011 29.85 841 24.83 0.1 32.2 95 -0.6 30.9 0
09:24 1011 29.85 841 24.83 0.2 32.3 95 -0.6 31 0
09:25 1011 29.85 841 24.83 0.2 32.4 94 -0.5 31 0
09:26 1011 29.85 841 24.83 0.3 32.5 94 -0.5 31 0
09:27 1011 29.85 841 24.83 0.3 32.6 94 -0.5 31.1 0
09:28 1011 29.85 841 24.83 0.4 32.7 94 -0.5 31.1 0
09:29 1011 29.85 841 24.83 0.5 32.8 93 -0.5 31.1 0
09:30 1011 29.85 841 24.83 0.5 32.9 94 -0.4 31.2 0
09:31 1011 29.85 841 24.83 0.5 33 93 -0.4 31.2 0
09:32 1011 29.85 841 24.83 0.5 33 93 -0.5 31.2 0
09:33 1011 29.85 841 24.83 0.6 33 93 -0.5 31.1 0
09:34 1011 29.85 841 24.83 0.6 33 93 -0.5 31.1 0
09:35 1011 29.85 841 24.83 0.6 33.1 92 -0.5 31.2 0
09:36 1011 29.85 841 24.83 0.6 33.1 92 -0.5 31.1 0
09:37 1011 29.85 841 24.83 0.6 33 92 -0.5 31.1 0
09:38 1011 29.85 841 24.83 0.6 33.1 92 -0.5 31.2 0
09:39 1011 29.85 841 24.83 0.6 33.1 92 -0.5 31.1 0
09:40 1011 29.85 841 24.83 0.6 33.1 92 -0.5 31.1 0
09:41 1011 29.85 841 24.83 0.6 33.2 92 -0.5 31.1 0
09:42 1011 29.85 841 24.83 0.7 33.2 92 -0.5 31.1 0
09:43 1011 29.85 840 24.81 0.7 33.2 92 -0.5 31.1 0
09:44 1011 29.85 840 24.81 0.7 33.3 92 -0.5 31.2 0
09:45 1011 29.85 840 24.81 0.7 33.3 92 -0.4 31.2 0
09:46 1011 29.85 840 24.81 0.8 33.5 92 -0.4 31.3 0
09:47 1011 29.85 841 24.83 0.8 33.5 91 -0.4 31.2 0
09:48 1011 29.85 841 24.83 0.9 33.6 91 -0.4 31.2 0
09:49 1011 29.85 841 24.83 0.9 33.6 90 -0.5 31.1 0
09:50 1011 29.85 841 24.83 0.9 33.7 90 -0.5 31.1 0
09:51 1011 29.85 841 24.83 1 33.8 90 -0.4 31.2 0
09:52 1011 29.85 841 24.83 1.1 33.9 90 -0.4 31.3 0
09:53 1011 29.85 841 24.83 1.1 34.1 90 -0.4 31.4 0
09:54 1011 29.85 841 24.83 1.2 34.1 89 -0.4 31.3 0
09:55 1011 29.85 841 24.83 1.3 34.3 89 -0.3 31.5 0
09:56 1011 29.85 841 24.83 1.3 34.4 89 -0.3 31.5 0
09:57 1011 29.85 841 24.83 1.4 34.5 88 -0.3 31.4 0
09:58 1011 29.85 841 24.83 1.4 34.6 87 -0.4 31.2 0
09:59 1011 29.85 841 24.83 1.4 34.5 87 -0.5 31.1 0
10:00 1011 29.85 841 24.83 1.4 34.5 88 -0.4 31.2 0
10:01 1011 29.85 841 24.83 1.4 34.4 88 -0.4 31.3 0
10:02 1011 29.85 841 24.83 1.4 34.5 89 -0.3 31.5 0
10:03 1011 29.85 840 24.81 1.5 34.7 89 -0.2 31.7 0
10:04 1011 29.85 840 24.81 1.6 34.9 88 -0.2 31.7 0
10:05 1011 29.85 840 24.81 1.8 35.2 88 -0.1 31.9 0
10:06 1011 29.85 840 24.81 1.9 35.3 87 -0.1 31.8 0
10:07 1011 29.85 840 24.81 1.9 35.4 87 -0.1 31.9 0
10:08 1011 29.85 841 24.83 2 35.5 88 0.1 32.3 0
10:09 1011 29.85 841 24.83 2.1 35.8 87 0.2 32.3 0
10:10 1011 29.85 841 24.83 2.3 36.2 85 0.1 32.2 0
10:11 1011 29.85 841 24.83 2.5 36.5 84 0.1 32.2 0
10:12 1011 29.85 841 24.83 2.6 36.7 84 0.1 32.2 0
10:13 1011 29.85 841 24.83 2.6 36.6 84 0.1 32.2 0
10:14 1011 29.85 841 24.83 2.6 36.6 84 0.2 32.4 0
10:15 1011 29.85 841 24.83 2.5 36.6 84 0.1 32.3 0
10:16 1011 29.85 841 24.83 2.6 36.7 85 0.3 32.6 0
10:17 1011 29.85 841 24.83 2.8 37 84 0.3 32.5 0
10:18 1011 29.85 841 24.83 3 37.4 83 0.3 32.6 0
10:19 1011 29.85 841 24.83 3.2 37.7 82 0.3 32.6 0
10:20 1011 29.85 841 24.83 3.3 37.9 81 0.3 32.5 0
10:21 1011 29.85 841 24.83 3.3 38 82 0.5 33 0
10:22 1011 29.85 841 24.83 3.4 38.1 82 0.7 33.2 0
10:23 1011 29.85 841 24.83 3.6 38.5 80 0.5 32.8 0
10:24 1011 29.85 841 24.83 3.7 38.7 78 0.2 32.4 0
10:25 1011 29.85 841 24.83 3.8 38.8 78 0.3 32.6 0
10:26 1011 29.85 841 24.83 3.9 39 78 0.4 32.8 0
10:27 1011 29.85 841 24.83 4 39.1 77 0.3 32.6 0
10:28 1011 29.85 841 24.83 3.9 39 77 0.2 32.3 0
10:29 1011 29.85 841 24.83 3.5 38.4 78 0.1 32.2 0
10:30 1011 29.85 841 24.83 3.1 37.7 81 0.1 32.2 0
10:31 1011 29.85 841 24.83 3 37.3 82 0.2 32.3 0
10:32 1011 29.85 841 24.83 2.8 37.1 82 0.1 32.1 0
10:33 1011 29.85 841 24.83 2.7 36.9 83 0.1 32.2 0
10:34 1011 29.85 841 24.83 2.6 36.7 84 0.1 32.2 0
10:35 1011 29.85 840 24.81 2.5 36.5 84 0.1 32.2 0
10:36 1011 29.85 840 24.81 2.4 36.4 85 0.1 32.2 0
10:37 1011 29.85 840 24.81 2.4 36.3 85 0.1 32.1 0
10:38 1011 29.85 840 24.81 2.4 36.3 85 0.1 32.1 0
10:39 1011 29.85 840 24.81 2.4 36.3 85 0.1 32.1 0
10:40 1011 29.85 840 24.81 2.4 36.3 85 0.1 32.1 0
10:41 1011 29.85 840 24.81 2.4 36.3 84 0 32 0
10:42 1011 29.85 840 24.81 2.4 36.3 84 0 32 0
10:43 1011 29.85 840 24.81 2.4 36.4 84 0.1 32.1 0
10:44 1011 29.85 840 24.81 2.5 36.5 84 0 32 0
10:45 1011 29.85 840 24.81 2.4 36.4 84 -0 31.9 0
10:46 1011 29.85 840 24.81 2.4 36.4 84 0 32 0
10:47 1011 29.85 840 24.81 2.5 36.5 84 0 32.1 0
10:48 1011 29.85 840 24.81 2.6 36.6 84 0.1 32.1 0
10:49 1011 29.85 840 24.81 2.6 36.6 83 0 32.1 0
10:50 1011 29.85 840 24.81 2.6 36.7 83 0.1 32.1 0
10:51 1011 29.85 840 24.81 2.6 36.7 83 0.1 32.1 0
10:52 1011 29.85 840 24.81 2.6 36.8 83 0 32.1 0
10:53 1011 29.85 840 24.81 2.6 36.8 83 0.1 32.1 0
10:54 1011 29.85 840 24.81 2.6 36.7 83 0.1 32.1 0
10:55 1011 29.85 840 24.81 2.6 36.6 84 0.1 32.2 0
10:56 1011 29.85 840 24.81 2.6 36.6 84 0.1 32.1 0
10:57 1011 29.85 840 24.81 2.6 36.7 84 0.1 32.2 0
10:58 1011 29.85 840 24.81 2.6 36.7 84 0.1 32.2 0
10:59 1011 29.85 840 24.81 2.7 36.8 83 0.1 32.2 0
11:00 1011 29.85 840 24.81 2.7 36.9 83 0.2 32.4 0
11:01 1011 29.85 840 24.81 2.8 37 83 0.2 32.4 0
11:02 1011 29.85 840 24.81 2.9 37.3 83 0.3 32.5 0
11:03 1011 29.85 840 24.81 3.1 37.5 82 0.3 32.5 0
11:04 1011 29.85 840 24.81 3.2 37.7 82 0.4 32.7 0
11:05 1011 29.85 840 24.81 3.2 37.7 82 0.4 32.7 0
11:06 1011 29.85 840 24.81 3.2 37.7 81 0.3 32.6 0
11:07 1011 29.85 840 24.81 3.2 37.7 82 0.3 32.6 0
11:08 1011 29.85 840 24.81 3.2 37.8 81 0.3 32.6 0
11:09 1011 29.85 840 24.81 3.2 37.8 81 0.4 32.6 0
11:10 1011 29.85 840 24.81 3.3 37.9 82 0.4 32.7 0
11:11 1011 29.85 840 24.81 3.3 38 81 0.4 32.8 0
11:12 1011 29.85 840 24.81 3.4 38.1 81 0.4 32.7 0
11:13 1011 29.85 840 24.81 3.5 38.2 80 0.4 32.7 0
11:14 1011 29.85 840 24.81 3.4 38.2 80 0.4 32.7 0
11:15 1011 29.85 840 24.81 3.4 38.1 81 0.4 32.6 0
11:16 1011 29.85 840 24.81 3.3 37.9 81 0.4 32.7 0
11:17 1011 29.85 840 24.81 3.3 37.9 81 0.4 32.7 0
11:18 1011 29.85 840 24.81 3.4 38.1 81 0.5 32.9 0
11:19 1011 29.85 840 24.81 3.5 38.3 81 0.5 32.9 0
11:20 1011 29.85 840 24.81 3.6 38.4 80 0.5 32.9 0
11:21 1011 29.85 840 24.81 3.6 38.6 80 0.5 32.8 0
11:22 1011 29.85 840 24.81 3.6 38.5 80 0.5 32.8 0
11:23 1011 29.85 840 24.81 3.5 38.3 80 0.5 32.8 0
11:24 1011 29.85 840 24.81 3.5 38.4 80 0.5 32.8 0
11:25 1011 29.85 840 24.81 3.5 38.3 80 0.4 32.7 0
11:26 1011 29.85 840 24.81 3.5 38.3 80 0.5 32.8 0
11:27 1011 29.85 840 24.81 3.5 38.3 80 0.5 32.8 0
11:28 1011 29.85 840 24.81 3.6 38.4 80 0.5 32.8 0
11:29 1011 29.85 840 24.81 3.6 38.5 81 0.6 33.1 0
11:30 1011 29.85 840 24.81 3.9 38.9 79 0.6 33.1 0
11:31 1011 29.85 840 24.81 4.1 39.4 78 0.7 33.2 0
11:32 1011 29.85 840 24.81 4.3 39.8 78 0.8 33.4 0
11:33 1011 29.85 840 24.81 4.5 40.1 78 0.9 33.7 0
11:34 1011 29.85 840 24.81 4.7 40.4 77 1 33.8 0
11:35 1011 29.85 840 24.81 4.9 40.8 76 1.1 34 0
11:36 1011 29.85 840 24.81 5.1 41.2 75 1 33.8 0
11:37 1011 29.85 840 24.81 5.4 41.7 74 1.1 33.9 0
11:38 1011 29.85 840 24.81 5.7 42.3 71 1 33.8 0
11:39 1011 29.85 840 24.81 6 42.8 71 1.1 33.9 0
11:40 1011 29.85 840 24.81 6.1 42.9 70 1.1 34 0
11:41 1011 29.85 840 24.81 6.2 43.1 69 1 33.9 0
11:42 1011 29.85 840 24.81 6.4 43.5 69 1.1 34 0
11:43 1011 29.85 840 24.81 6.4 43.5 69 1.1 34 0
11:44 1011 29.85 840 24.81 6 42.7 72 1.3 34.3 0
11:45 1011 29.85 840 24.81 5.3 41.6 75 1.3 34.3 0
11:46 1011 29.85 840 24.81 4.9 40.8 77 1.2 34.1 0
11:47 1011 29.85 840 24.81 4.6 40.2 78 1 33.9 0
11:48 1011 29.85 840 24.81 4.4 39.8 79 1 33.8 0
11:49 1011 29.85 840 24.81 4.2 39.5 80 0.9 33.7 0
11:50 1011 29.85 840 24.81 4 39.1 80 0.9 33.5 0
11:51 1011 29.85 840 24.81 3.8 38.8 81 0.8 33.5 0
11:52 1011 29.85 840 24.81 3.7 38.6 82 0.8 33.4 0
11:53 1011 29.85 840 24.81 3.5 38.3 82 0.8 33.4 0
11:54 1011 29.85 840 24.81 3.3 38 83 0.7 33.3 0
11:55 1011 29.85 840 24.81 3.1 37.6 84 0.7 33.2 0
11:56 1011 29.85 840 24.81 3 37.4 85 0.6 33.1 0
11:57 1011 29.85 840 24.81 2.9 37.2 85 0.6 33.1 0
11:58 1011 29.85 840 24.81 2.8 37.1 85 0.6 33.1 0
11:59 1011 29.85 840 24.81 2.9 37.3 84 0.6 33 0
12:00 1011 29.85 840 24.81 3.1 37.6 84 0.6 33.1 0
12:01 1011 29.85 840 24.81 3.3 37.9 83 0.6 33.2 0
12:02 1011 29.85 840 24.81 3.4 38.1 83 0.7 33.3 0
12:03 1011 29.85 840 24.81 3.4 38.1 82 0.7 33.2 0
12:04 1011 29.85 840 24.81 3.4 38.1 83 0.8 33.4 0
12:05 1011 29.85 840 24.81 3.5 38.3 82 0.7 33.2 0
12:06 1011 29.85 840 24.81 3.6 38.5 81 0.6 33.2 0
12:07 1011 29.85 840 24.81 3.6 38.5 81 0.7 33.3 0
12:08 1011 29.85 840 24.81 3.5 38.4 82 0.7 33.3 0
12:09 1011 29.85 840 24.81 3.5 38.2 82 0.7 33.2 0
12:10 1011 29.85 840 24.81 3.4 38.1 82 0.7 33.2 0
12:11 1010 29.83 840 24.81 3.4 38.2 82 0.6 33.2 0
12:12 1010 29.83 840 24.81 3.5 38.3 82 0.7 33.3 0
12:13 1010 29.83 840 24.81 3.7 38.6 81 0.7 33.3 0
12:14 1010 29.83 840 24.81 3.8 38.9 80 0.7 33.3 0
12:15 1010 29.83 840 24.81 3.9 39 80 0.8 33.5 0
12:16 1010 29.83 840 24.81 3.9 39 80 0.7 33.3 0
12:17 1010 29.83 840 24.81 3.9 39.1 80 0.7 33.3 0
12:18 1010 29.83 840 24.81 4.1 39.3 79 0.8 33.5 0
12:19 1010 29.83 840 24.81 4.3 39.7 78 0.8 33.5 0
12:20 1010 29.83 840 24.81 4.6 40.2 77 0.9 33.6 0
12:21 1010 29.83 840 24.81 4.8 40.7 75 0.9 33.6 0
12:22 1010 29.83 840 24.81 5 41 75 0.9 33.7 0
12:23 1010 29.83 840 24.81 5.1 41.1 75 1 33.7 0
12:24 1010 29.83 840 24.81 5.1 41.2 74 0.9 33.7 0
12:25 1010 29.83 840 24.81 5.1 41.2 74 0.9 33.7 0
12:26 1010 29.83 839 24.78 5 41 75 1 33.8 0
12:27 1010 29.83 840 24.81 4.9 40.9 75 1 33.7 0
12:28 1010 29.83 840 24.81 4.9 40.8 76 0.9 33.6 0
12:29 1010 29.83 839 24.78 4.8 40.6 76 0.9 33.7 0
12:30 1010 29.83 839 24.78 4.4 40 78 1 33.7 0
12:31 1010 29.83 839 24.78 4.1 39.4 79 0.9 33.5 0
12:32 1010 29.83 839 24.78 4.1 39.3 79 0.8 33.5 0
12:33 1010 29.83 839 24.78 4 39.1 80 0.8 33.4 0
12:34 1010 29.83 839 24.78 3.9 39.1 80 0.8 33.4 0
12:35 1010 29.83 839 24.78 3.8 38.9 80 0.8 33.4 0
12:36 1010 29.83 839 24.78 3.7 38.6 81 0.7 33.3 0
12:37 1010 29.83 839 24.78 3.6 38.4 81 0.7 33.2 0
12:38 1010 29.83 839 24.78 3.5 38.2 82 0.6 33.1 0
12:39 1010 29.83 839 24.78 3.4 38 82 0.6 33.1 0
12:40 1010 29.83 839 24.78 3.2 37.8 83 0.6 33.1 0
12:41 1010 29.83 839 24.78 3.1 37.6 83 0.6 33 0
12:42 1010 29.83 839 24.78 3.1 37.5 83 0.5 32.9 0
12:43 1010 29.83 839 24.78 3 37.4 84 0.6 33 0
12:44 1010 29.83 839 24.78 2.9 37.2 85 0.6 33 0
12:45 1010 29.83 839 24.78 2.8 37 85 0.5 32.9 0
12:46 1010 29.83 839 24.78 2.7 36.9 86 0.6 33 0
12:47 1010 29.83 839 24.78 2.7 36.9 86 0.6 33 0
12:48 1010 29.83 839 24.78 2.8 37 85 0.6 33 0
12:49 1010 29.83 839 24.78 2.9 37.2 85 0.6 33.1 0
12:50 1010 29.83 839 24.78 3 37.4 84 0.6 33.1 0
12:51 1010 29.83 839 24.78 3.2 37.8 83 0.6 33.1 0
12:52 1010 29.83 839 24.78 3.3 38 83 0.7 33.3 0
12:53 1010 29.83 839 24.78 3.3 38 83 0.7 33.2 0
12:54 1010 29.83 839 24.78 3.3 38 83 0.7 33.3 0
12:55 1010 29.83 839 24.78 3.3 37.9 83 0.7 33.2 0
12:56 1010 29.83 839 24.78 3.3 37.9 83 0.7 33.2 0
12:57 1010 29.83 839 24.78 3.3 38 83 0.7 33.3 0
12:58 1010 29.83 839 24.78 3.5 38.3 82 0.8 33.4 0
12:59 1010 29.83 839 24.78 3.5 38.3 82 0.8 33.4 0
13:00 1010 29.83 839 24.78 3.7 38.7 81 0.8 33.5 0
13:01 1010 29.83 839 24.78 3.8 38.8 81 0.8 33.5 0
13:02 1010 29.83 839 24.78 3.8 38.8 81 0.8 33.5 0
13:03 1010 29.83 839 24.78 3.7 38.7 81 0.8 33.5 0
13:04 1010 29.83 839 24.78 3.5 38.3 82 0.8 33.4 0
13:05 1010 29.83 839 24.78 3.4 38 82 0.7 33.2 0
13:06 1010 29.83 839 24.78 3.2 37.8 83 0.6 33.1 0
13:07 1010 29.83 839 24.78 3.1 37.5 83 0.5 32.9 0
13:08 1010 29.83 839 24.78 3 37.4 84 0.6 33 0
13:09 1010 29.83 839 24.78 2.9 37.3 84 0.6 33 0
13:10 1010 29.83 839 24.78 3 37.3 84 0.5 32.9 0
13:11 1010 29.83 839 24.78 3 37.3 84 0.5 32.9 0
13:12 1010 29.83 839 24.78 2.9 37.3 84 0.5 32.9 0
13:13 1010 29.83 839 24.78 3 37.3 84 0.5 32.9 0
13:14 1010 29.83 839 24.78 3 37.4 84 0.6 33 0
13:15 1010 29.83 839 24.78 3 37.4 84 0.5 32.9 0
13:16 1010 29.83 839 24.78 3 37.3 84 0.5 32.9 0
13:17 1010 29.83 839 24.78 2.9 37.2 84 0.5 32.9 0
13:18 1010 29.83 839 24.78 2.9 37.2 85 0.5 33 0
13:19 1010 29.83 839 24.78 2.9 37.2 85 0.5 33 0
13:20 1010 29.83 839 24.78 2.9 37.2 85 0.6 33 0
13:21 1010 29.83 839 24.78 2.9 37.2 84 0.5 32.9 0
13:22 1010 29.83 839 24.78 2.9 37.2 84 0.5 32.9 0
13:23 1010 29.83 839 24.78 2.9 37.3 84 0.5 32.9 0
13:24 1010 29.83 839 24.78 2.9 37.3 84 0.5 32.9 0
13:25 1010 29.83 839 24.78 2.9 37.2 84 0.5 32.9 0
13:26 1010 29.83 839 24.78 2.9 37.2 84 0.5 33 0
13:27 1010 29.83 839 24.78 2.8 37.1 84 0.5 32.9 0
13:28 1010 29.83 839 24.78 2.7 36.9 85 0.4 32.8 0
13:29 1010 29.83 839 24.78 2.7 36.8 85 0.5 32.9 0
13:30 1010 29.83 839 24.78 2.7 36.8 86 0.5 32.9 0
13:31 1010 29.83 839 24.78 2.6 36.8 86 0.5 32.8 0
13:32 1010 29.83 839 24.78 2.7 36.8 86 0.5 32.9 0
13:33 1010 29.83 839 24.78 2.8 37 85 0.5 32.9 0
13:34 1010 29.83 839 24.78 2.8 37 85 0.5 33 0
13:35 1010 29.83 839 24.78 2.8 37.1 85 0.5 32.9 0
13:36 1010 29.83 839 24.78 2.9 37.2 84 0.5 32.9 0
13:37 1010 29.83 839 24.78 2.9 37.3 84 0.6 33 0
13:38 1010 29.83 839 24.78 2.9 37.2 84 0.5 33 0
13:39 1010 29.83 839 24.78 2.9 37.2 85 0.6 33 0
13:40 1010 29.83 839 24.78 2.9 37.2 84 0.5 33 0
13:41 1010 29.83 839 24.78 2.9 37.2 84 0.5 32.9 0
13:42 1010 29.83 839 24.78 2.9 37.2 85 0.6 33 0
13:43 1010 29.83 839 24.78 2.9 37.3 84 0.6 33 0
13:44 1010 29.83 839 24.78 3 37.4 84 0.6 33.1 0
13:45 1010 29.83 839 24.78 3 37.4 84 0.6 33 0
13:46 1010 29.83 839 24.78 3 37.4 84 0.6 33 0
13:47 1010 29.83 839 24.78 3 37.5 84 0.6 33 0
13:48 1010 29.83 839 24.78 3 37.4 84 0.5 33 0
13:49 1010 29.83 839 24.78 3 37.4 84 0.6 33 0
13:50 1010 29.83 839 24.78 3 37.3 84 0.5 32.9 0
13:51 1010 29.83 839 24.78 3 37.4 84 0.5 32.9 0
13:52 1010 29.83 839 24.78 3 37.5 84 0.5 32.9 0
13:53 1010 29.83 839 24.78 3.1 37.6 83 0.6 33 0
13:54 1010 29.83 839 24.78 3.2 37.8 83 0.6 33.1 0
13:55 1010 29.83 839 24.78 3.3 38 82 0.6 33.1 0
13:56 1010 29.83 839 24.78 3.5 38.3 82 0.7 33.3 0
13:57 1010 29.83 839 24.78 3.7 38.6 81 0.7 33.3 0
13:58 1010 29.83 839 24.78 3.9 39 79 0.7 33.2 0
13:59 1010 29.83 839 24.78 4.1 39.4 78 0.7 33.2 0
14:00 1010 29.83 839 24.78 4.2 39.5 78 0.7 33.3 0
14:01 1010 29.83 839 24.78 4.2 39.5 78 0.7 33.3 0
14:02 1010 29.83 839 24.78 4.2 39.5 79 0.8 33.4 0
14:03 1010 29.83 839 24.78 4.2 39.6 79 0.8 33.5 0
14:04 1010 29.83 839 24.78 4.3 39.7 78 0.8 33.5 0
14:05 1010 29.83 839 24.78 4.4 40 77 0.8 33.5 0
14:06 1010 29.83 839 24.78 4.7 40.4 77 1 33.8 0
14:07 1010 29.83 839 24.78 5.1 41.2 74 0.9 33.6 0
14:08 1010 29.83 839 24.78 5.4 41.7 72 0.8 33.4 0
14:09 1010 29.83 839 24.78 5.4 41.7 71 0.7 33.2 0
14:10 1010 29.83 839 24.78 5.2 41.3 73 0.8 33.4 0
14:11 1010 29.83 839 24.78 4.8 40.7 75 0.7 33.2 0
14:12 1010 29.83 839 24.78 4.5 40.1 76 0.6 33.2 0
14:13 1010 29.83 839 24.78 4.3 39.7 77 0.6 33.2 0
14:14 1010 29.83 839 24.78 4.1 39.4 78 0.6 33.1 0
14:15 1009 29.8 839 24.78 4 39.2 79 0.6 33.1 0
14:16 1009 29.8 839 24.78 3.9 39.1 79 0.6 33 0
14:17 1009 29.8 839 24.78 3.9 39.1 79 0.6 33 0
14:18 1009 29.8 839 24.78 4 39.1 79 0.6 33 0
14:19 1010 29.83 839 24.78 3.9 39.1 79 0.5 33 0
14:20 1010 29.83 839 24.78 3.7 38.7 79 0.5 32.9 0
14:21 1010 29.83 839 24.78 3.6 38.5 80 0.5 32.9 0
14:22 1010 29.83 839 24.78 3.5 38.2 81 0.5 32.9 0
14:23 1010 29.83 839 24.78 3.3 38 82 0.5 32.8 0
14:24 1009 29.8 839 24.78 3.3 37.9 82 0.5 32.9 0
14:25 1010 29.83 839 24.78 3.2 37.8 82 0.5 32.9 0
14:26 1010 29.83 839 24.78 3.1 37.6 83 0.5 32.8 0
14:27 1009 29.8 839 24.78 2.9 37.3 84 0.4 32.8 0
14:28 1009 29.8 839 24.78 2.8 37.1 84 0.4 32.8 0
14:29 1009 29.8 839 24.78 2.7 36.9 85 0.4 32.7 0
14:30 1009 29.8 839 24.78 2.7 36.8 85 0.4 32.7 0
14:31 1009 29.8 839 24.78 2.7 36.9 85 0.5 32.8 0
14:32 1009 29.8 839 24.78 2.8 37 85 0.5 32.8 0
14:33 1009 29.8 839 24.78 2.9 37.1 84 0.4 32.7 0
14:34 1009 29.8 839 24.78 3 37.3 84 0.4 32.8 0
14:35 1009 29.8 839 24.78 3 37.4 83 0.4 32.8 0
14:36 1009 29.8 839 24.78 3 37.5 83 0.4 32.7 0
14:37 1009 29.8 839 24.78 3 37.5 83 0.4 32.7 0
14:38 1009 29.8 839 24.78 3.1 37.5 83 0.5 32.8 0
14:39 1009 29.8 839 24.78 3.1 37.6 83 0.5 32.8 0
14:40 1009 29.8 839 24.78 3.2 37.7 83 0.5 32.9 0
14:41 1009 29.8 839 24.78 3.3 37.9 82 0.5 32.9 0
14:42 1009 29.8 839 24.78 3.4 38.2 81 0.5 32.9 0
14:43 1009 29.8 839 24.78 3.6 38.5 81 0.6 33 0
14:44 1009 29.8 839 24.78 3.7 38.7 79 0.5 32.9 0
14:45 1009 29.8 839 24.78 3.8 38.9 79 0.6 33.1 0
14:46 1009 29.8 839 24.78 4.1 39.4 78 0.5 32.9 0
14:47 1009 29.8 839 24.78 4.2 39.5 77 0.6 33 0
14:48 1009 29.8 839 24.78 4.3 39.7 77 0.6 33 0
14:49 1009 29.8 839 24.78 4.3 39.8 77 0.6 33.1 0
14:50 1009 29.8 839 24.78 4.3 39.8 77 0.6 33.1 0
14:51 1009 29.8 839 24.78 4.3 39.7 77 0.6 33.1 0
14:52 1009 29.8 839 24.78 4.3 39.8 77 0.7 33.3 0
14:53 1009 29.8 839 24.78 4.3 39.7 77 0.6 33.2 0
14:54 1009 29.8 839 24.78 4.2 39.6 77 0.7 33.2 0
14:55 1009 29.8 839 24.78 4.3 39.7 77 0.7 33.2 0
14:56 1009 29.8 839 24.78 4.2 39.6 78 0.7 33.3 0
14:57 1009 29.8 839 24.78 4.2 39.6 77 0.6 33.2 0
14:58 1009 29.8 839 24.78 4.2 39.6 78 0.7 33.2 0
14:59 1009 29.8 839 24.78 4.2 39.6 77 0.6 33.1 0
15:00 1009 29.8 838 24.75 4.2 39.5 78 0.6 33.1 0
15:01 1009 29.8 838 24.75 4.1 39.4 78 0.6 33.2 0
15:02 1009 29.8 838 24.75 4.1 39.3 78 0.7 33.2 0
15:03 1009 29.8 838 24.75 4.1 39.3 78 0.6 33.2 0
15:04 1009 29.8 838 24.75 4 39.1 79 0.6 33.1 0
15:05 1009 29.8 838 24.75 3.9 39 79 0.6 33.1 0
15:06 1009 29.8 838 24.75 3.8 38.8 80 0.6 33 0
15:07 1009 29.8 838 24.75 3.8 38.8 80 0.6 33.1 0
15:08 1009 29.8 838 24.75 3.7 38.6 80 0.6 33.1 0
15:09 1009 29.8 838 24.75 3.6 38.6 81 0.6 33.1 0
15:10 1009 29.8 838 24.75 3.7 38.6 81 0.7 33.2 0
15:11 1009 29.8 838 24.75 3.7 38.6 81 0.7 33.2 0
15:12 1009 29.8 838 24.75 3.8 38.8 80 0.7 33.2 0
15:13 1009 29.8 838 24.75 3.9 38.9 80 0.7 33.3 0
15:14 1009 29.8 838 24.75 3.9 39.1 79 0.7 33.3 0
15:15 1009 29.8 838 24.75 4 39.2 79 0.7 33.3 0
15:16 1009 29.8 838 24.75 4 39.2 79 0.6 33.2 0
15:17 1009 29.8 838 24.75 4 39.2 79 0.7 33.3 0
15:18 1009 29.8 838 24.75 4 39.2 79 0.6 33.2 0
15:19 1009 29.8 838 24.75 3.9 39 79 0.6 33.1 0
15:20 1009 29.8 838 24.75 3.9 39 79 0.6 33 0
15:21 1009 29.8 838 24.75 3.9 38.9 79 0.6 33.1 0
15:22 1009 29.8 838 24.75 3.8 38.8 80 0.6 33.2 0
15:23 1009 29.8 838 24.75 3.7 38.7 80 0.6 33.1 0
15:24 1009 29.8 839 24.78 3.5 38.4 81 0.5 33 0
15:25 1009 29.8 839 24.78 3.4 38.1 82 0.6 33 0
15:26 1009 29.8 839 24.78 3.3 37.9 82 0.6 33 0
15:27 1009 29.8 839 24.78 3.2 37.7 83 0.5 32.9 0
15:28 1009 29.8 839 24.78 3.1 37.6 83 0.5 32.9 0
15:29 1009 29.8 839 24.78 3.1 37.6 83 0.5 32.9 0
15:30 1009 29.8 839 24.78 3.1 37.7 83 0.5 32.9 0
15:31 1009 29.8 839 24.78 3.1 37.6 83 0.5 32.8 0
15:32 1009 29.8 839 24.78 3.1 37.6 83 0.5 32.8 0
15:33 1009 29.8 839 24.78 3.1 37.6 83 0.4 32.8 0
15:34 1009 29.8 839 24.78 3.1 37.7 83 0.5 32.9 0
15:35 1009 29.8 838 24.75 3.1 37.6 83 0.4 32.8 0
15:36 1009 29.8 838 24.75 3.1 37.5 83 0.4 32.8 0
15:37 1009 29.8 838 24.75 3.1 37.5 83 0.4 32.8 0
15:38 1009 29.8 838 24.75 3 37.4 83 0.4 32.7 0
15:39 1009 29.8 838 24.75 3 37.4 83 0.4 32.6 0
15:40 1009 29.8 839 24.78 3 37.5 83 0.4 32.7 0
15:41 1009 29.8 839 24.78 3 37.5 83 0.4 32.6 0
15:42 1009 29.8 838 24.75 3.1 37.5 82 0.3 32.6 0
15:43 1009 29.8 838 24.75 3.1 37.6 82 0.3 32.6 0
15:44 1009 29.8 839 24.78 3.1 37.6 82 0.3 32.6 0
15:45 1009 29.8 839 24.78 3.1 37.7 82 0.4 32.7 0
15:46 1009 29.8 839 24.78 3.2 37.7 82 0.4 32.7 0
15:47 1009 29.8 838 24.75 3.1 37.7 82 0.4 32.7 0
15:48 1009 29.8 839 24.78 3.2 37.7 82 0.4 32.7 0
15:49 1009 29.8 839 24.78 3.2 37.7 82 0.4 32.8 0
15:50 1009 29.8 838 24.75 3.2 37.8 82 0.4 32.8 0
15:51 1009 29.8 838 24.75 3.2 37.7 82 0.4 32.7 0
15:52 1009 29.8 838 24.75 3.2 37.8 82 0.4 32.8 0
15:53 1009 29.8 838 24.75 3.2 37.7 82 0.4 32.8 0
15:54 1009 29.8 838 24.75 3.1 37.6 83 0.4 32.8 0
15:55 1009 29.8 838 24.75 3 37.4 83 0.4 32.8 0
15:56 1009 29.8 838 24.75 2.9 37.3 84 0.5 32.8 0
15:57 1009 29.8 838 24.75 2.9 37.1 84 0.4 32.8 0
15:58 1009 29.8 838 24.75 2.8 37 84 0.4 32.8 0
15:59 1009 29.8 838 24.75 2.8 37 84 0.4 32.7 0
16:00 1009 29.8 838 24.75 2.7 36.9 85 0.4 32.7 0
16:01 1009 29.8 838 24.75 2.7 36.8 85 0.4 32.7 0
16:02 1009 29.8 838 24.75 2.7 36.8 85 0.5 32.8 0
16:03 1009 29.8 838 24.75 2.6 36.7 85 0.4 32.7 0
16:04 1009 29.8 838 24.75 2.6 36.7 86 0.4 32.8 0
16:05 1009 29.8 838 24.75 2.7 36.8 85 0.4 32.8 0
16:06 1009 29.8 838 24.75 2.7 36.8 85 0.4 32.7 0
16:07 1009 29.8 838 24.75 2.8 37 85 0.4 32.8 0
16:08 1009 29.8 838 24.75 2.7 36.8 85 0.4 32.7 0
16:09 1009 29.8 838 24.75 2.7 36.8 85 0.3 32.6 0
16:10 1009 29.8 838 24.75 2.6 36.7 85 0.3 32.6 0
16:11 1009 29.8 838 24.75 2.5 36.5 86 0.4 32.7 0
16:12 1009 29.8 838 24.75 2.4 36.3 86 0.3 32.6 0
16:13 1009 29.8 838 24.75 2.3 36.2 87 0.4 32.7 0
16:14 1009 29.8 838 24.75 2.3 36.1 87 0.4 32.7 0
16:15 1009 29.8 838 24.75 2.2 36 87 0.4 32.7 0
16:16 1009 29.8 838 24.75 2.2 36 88 0.4 32.7 0
16:17 1009 29.8 838 24.75 2.3 36.1 87 0.4 32.7 0
16:18 1009 29.8 838 24.75 2.3 36.2 87 0.3 32.6 0
16:19 1009 29.8 838 24.75 2.4 36.3 86 0.4 32.7 0
16:20 1009 29.8 838 24.75 2.4 36.4 86 0.3 32.6 0
16:21 1009 29.8 838 24.75 2.5 36.5 85 0.3 32.5 0
16:22 1009 29.8 838 24.75 2.6 36.7 85 0.3 32.5 0
16:23 1009 29.8 838 24.75 2.7 36.8 84 0.3 32.5 0
16:24 1009 29.8 838 24.75 2.7 36.9 84 0.3 32.5 0
16:25 1009 29.8 838 24.75 2.8 37 84 0.4 32.7 0
16:26 1009 29.8 838 24.75 2.7 36.9 85 0.4 32.8 0
16:27 1009 29.8 838 24.75 2.6 36.7 86 0.5 32.8 0
16:28 1009 29.8 838 24.75 2.5 36.5 86 0.4 32.8 0
16:29 1009 29.8 838 24.75 2.5 36.4 86 0.4 32.8 0
16:30 1009 29.8 838 24.75 2.5 36.5 86 0.4 32.7 0
16:31 1009 29.8 838 24.75 2.6 36.7 85 0.4 32.8 0
16:32 1009 29.8 838 24.75 2.7 36.8 85 0.4 32.8 0
16:33 1009 29.8 838 24.75 2.6 36.7 85 0.4 32.8 0
16:34 1009 29.8 838 24.75 2.6 36.7 85 0.4 32.7 0
16:35 1009 29.8 838 24.75 2.6 36.6 86 0.4 32.7 0
16:36 1009 29.8 838 24.75 2.5 36.5 86 0.4 32.7 0
16:37 1009 29.8 838 24.75 2.5 36.4 86 0.4 32.7 0
16:38 1009 29.8 838 24.75 2.4 36.3 86 0.4 32.7 0
16:39 1009 29.8 839 24.78 2.4 36.2 87 0.4 32.6 0
16:40 1009 29.8 839 24.78 2.3 36.2 87 0.4 32.7 0
16:41 1009 29.8 839 24.78 2.4 36.2 87 0.4 32.8 0
16:42 1009 29.8 839 24.78 2.4 36.4 87 0.5 32.9 0
16:43 1009 29.8 839 24.78 2.5 36.5 86 0.5 32.9 0
16:44 1009 29.8 839 24.78 2.6 36.7 86 0.5 32.9 0
16:45 1009 29.8 839 24.78 2.6 36.7 86 0.5 32.9 0
16:46 1009 29.8 839 24.78 2.7 36.8 86 0.5 32.9 0
16:47 1009 29.8 839 24.78 2.8 37 85 0.6 33 0
16:48 1009 29.8 839 24.78 2.8 37 85 0.5 32.9 0
16:49 1009 29.8 839 24.78 2.8 37.1 85 0.5 33 0
16:50 1009 29.8 839 24.78 2.9 37.2 84 0.5 32.9 0
16:51 1009 29.8 839 24.78 2.9 37.2 84 0.5 32.8 0
16:52 1009 29.8 839 24.78 3 37.3 84 0.6 33 0
16:53 1009 29.8 839 24.78 2.9 37.3 84 0.5 33 0
16:54 1009 29.8 839 24.78 2.9 37.2 84 0.5 32.9 0
16:55 1009 29.8 839 24.78 2.9 37.2 84 0.5 32.9 0
16:56 1009 29.8 839 24.78 2.9 37.2 84 0.5 32.9 0
16:57 1009 29.8 839 24.78 2.8 37.1 85 0.5 32.8 0
16:58 1009 29.8 839 24.78 2.8 37 85 0.5 32.8 0
16:59 1009 29.8 839 24.78 2.7 36.9 85 0.4 32.8 0
17:00 1009 29.8 839 24.78 2.7 36.9 85 0.5 32.9 0
17:01 1009 29.8 839 24.78 2.7 36.9 85 0.4 32.8 0
17:02 1009 29.8 839 24.78 2.6 36.8 85 0.4 32.7 0
17:03 1009 29.8 839 24.78 2.6 36.7 85 0.4 32.6 0
17:04 1009 29.8 839 24.78 2.5 36.6 86 0.4 32.7 0
17:05 1009 29.8 839 24.78 2.5 36.5 86 0.3 32.6 0
17:06 1009 29.8 839 24.78 2.5 36.4 86 0.4 32.7 0
17:07 1009 29.8 839 24.78 2.4 36.4 86 0.3 32.6 0
17:08 1009 29.8 839 24.78 2.4 36.4 86 0.4 32.7 0
17:09 1009 29.8 839 24.78 2.5 36.5 86 0.3 32.6 0
17:10 1010 29.83 839 24.78 2.5 36.5 86 0.3 32.6 0
17:11 1010 29.83 839 24.78 2.5 36.5 85 0.3 32.5 0
17:12 1010 29.83 839 24.78 2.5 36.6 85 0.3 32.6 0
17:13 1010 29.83 839 24.78 2.6 36.6 85 0.3 32.5 0
17:14 1010 29.83 839 24.78 2.6 36.6 85 0.3 32.6 0
17:15 1010 29.83 839 24.78 2.5 36.6 85 0.3 32.5 0
17:16 1010 29.83 839 24.78 2.5 36.6 85 0.3 32.6 0
17:17 1010 29.83 839 24.78 2.5 36.6 85 0.3 32.6 0
17:18 1010 29.83 839 24.78 2.5 36.6 85 0.3 32.5 0
17:19 1010 29.83 839 24.78 2.6 36.6 85 0.3 32.6 0
17:20 1010 29.83 839 24.78 2.6 36.6 85 0.3 32.5 0
17:21 1010 29.83 839 24.78 2.5 36.5 85 0.3 32.6 0
17:22 1010 29.83 839 24.78 2.5 36.5 86 0.4 32.6 0
17:23 1010 29.83 839 24.78 2.4 36.4 85 0.2 32.4 0
17:24 1010 29.83 839 24.78 2.3 36.1 86 0.1 32.2 0
17:25 1010 29.83 839 24.78 2.1 35.8 86 0.1 32.1 0
17:26 1010 29.83 839 24.78 1.9 35.4 87 0 32 0
17:27 1010 29.83 839 24.78 1.7 35.1 88 -0 32 0
17:28 1010 29.83 839 24.78 1.6 34.8 89 -0 32 0
17:29 1010 29.83 839 24.78 1.5 34.6 90 0.1 32.1 0
17:30 1010 29.83 839 24.78 1.5 34.6 91 0.1 32.2 0
17:31 1010 29.83 839 24.78 1.5 34.7 91 0.1 32.2 0
17:32 1010 29.83 839 24.78 1.5 34.7 90 0.1 32.2 0
17:33 1010 29.83 839 24.78 1.5 34.7 91 0.1 32.2 0
17:34 1010 29.83 839 24.78 1.6 34.8 91 0.2 32.3 0
17:35 1010 29.83 839 24.78 1.6 34.9 90 0.2 32.4 0
17:36 1010 29.83 839 24.78 1.7 35 90 0.2 32.4 0
17:37 1010 29.83 839 24.78 1.8 35.2 90 0.3 32.5 0
17:38 1010 29.83 839 24.78 1.8 35.3 89 0.2 32.4 0
17:39 1010 29.83 839 24.78 1.9 35.4 89 0.3 32.5 0
17:40 1010 29.83 839 24.78 2 35.5 89 0.3 32.5 0
17:41 1010 29.83 839 24.78 2 35.6 88 0.3 32.5 0
17:42 1010 29.83 839 24.78 2.1 35.7 88 0.2 32.4 0
17:43 1010 29.83 839 24.78 2.1 35.8 88 0.3 32.5 0
17:44 1010 29.83 839 24.78 2.1 35.9 87 0.2 32.4 0
17:45 1010 29.83 839 24.78 2.2 35.9 87 0.3 32.5 0
17:46 1010 29.83 839 24.78 2.2 35.9 87 0.2 32.4 0
17:47 1010 29.83 839 24.78 2.2 35.9 87 0.2 32.4 0
17:48 1010 29.83 839 24.78 2.1 35.7 87 0.2 32.3 0
17:49 1010 29.83 839 24.78 2 35.6 88 0.1 32.3 0
17:50 1010 29.83 839 24.78 1.9 35.4 88 0.1 32.2 0
17:51 1010 29.83 839 24.78 1.8 35.2 88 0.1 32.1 0
17:52 1010 29.83 839 24.78 1.8 35.2 89 0.2 32.3 0
17:53 1010 29.83 839 24.78 1.9 35.4 89 0.2 32.4 0
17:54 1010 29.83 839 24.78 2.1 35.7 88 0.2 32.4 0
17:55 1010 29.83 839 24.78 2.2 35.9 87 0.2 32.3 0
17:56 1010 29.83 839 24.78 2.2 36 86 0.2 32.3 0
17:57 1010 29.83 839 24.78 2.3 36.2 86 0.2 32.4 0
17:58 1010 29.83 839 24.78 2.5 36.4 85 0.2 32.4 0
17:59 1010 29.83 839 24.78 2.5 36.6 85 0.2 32.4 0
18:00 1010 29.83 839 24.78 2.5 36.5 84 0.2 32.3 0
18:01 1010 29.83 839 24.78 2.4 36.3 85 0.1 32.2 0
18:02 1010 29.83 839 24.78 2.2 36 86 0.1 32.2 0
18:03 1010 29.83 839 24.78 2.1 35.7 87 0.1 32.1 0
18:04 1010 29.83 839 24.78 1.9 35.5 87 0.1 32.1 0
18:05 1010 29.83 839 24.78 1.8 35.3 88 0 32 0
18:06 1010 29.83 839 24.78 1.8 35.2 88 0 32.1 0
18:07 1010 29.83 839 24.78 1.8 35.3 88 0.1 32.1 0
18:08 1010 29.83 839 24.78 1.9 35.4 88 0.1 32.2 0
18:09 1010 29.83 839 24.78 2 35.6 87 0.1 32.2 0
18:10 1010 29.83 839 24.78 2.1 35.7 87 0.1 32.2 0
18:11 1010 29.83 839 24.78 1.9 35.5 87 0 32.1 0
18:12 1010 29.83 839 24.78 1.9 35.3 88 0 32.1 0
18:13 1010 29.83 839 24.78 1.8 35.2 88 0 32 0
18:14 1010 29.83 839 24.78 1.7 35.1 88 -0 32 0
18:15 1010 29.83 839 24.78 1.7 35 89 0 32 0
18:16 1010 29.83 839 24.78 1.6 34.9 89 0 32 0
18:17 1010 29.83 839 24.78 1.5 34.8 90 0 32 0
18:18 1010 29.83 839 24.78 1.5 34.7 90 -0 32 0
18:19 1010 29.83 839 24.78 1.5 34.7 90 -0 32 0
18:20 1010 29.83 839 24.78 1.4 34.5 90 -0 31.9 0
18:21 1010 29.83 839 24.78 1.4 34.5 91 0 32 0
18:22 1010 29.83 839 24.78 1.5 34.7 90 0 32.1 0
18:23 1010 29.83 839 24.78 1.6 34.9 90 0.1 32.1 0
18:24 1010 29.83 839 24.78 1.7 35.1 89 0.1 32.1 0
18:25 1010 29.83 839 24.78 1.8 35.2 89 0.1 32.2 0
18:26 1010 29.83 839 24.78 1.9 35.4 89 0.2 32.4 0
18:27 1010 29.83 839 24.78 2 35.5 88 0.2 32.4 0
18:28 1010 29.83 839 24.78 2 35.7 88 0.3 32.5 0
18:29 1010 29.83 839 24.78 2.1 35.8 88 0.2 32.4 0
18:30 1010 29.83 839 24.78 2.1 35.8 87 0.2 32.4 0
18:31 1010 29.83 839 24.78 2.2 35.9 87 0.2 32.3 0
18:32 1010 29.83 839 24.78 2.2 36 85 -0.1 31.9 0
18:33 1010 29.83 839 24.78 2.4 36.3 84 -0.1 31.9 0
18:34 1010 29.83 839 24.78 2.5 36.5 84 0 32 0
18:35 1010 29.83 839 24.78 2.5 36.6 83 -0 32 0
18:36 1010 29.83 839 24.78 2.5 36.6 83 -0 31.9 0
18:37 1010 29.83 839 24.78 2.6 36.7 83 0 32 0
18:38 1010 29.83 839 24.78 2.6 36.6 83 -0 32 0
18:39 1010 29.83 839 24.78 2.6 36.6 83 -0 32 0
18:40 1010 29.83 839 24.78 2.5 36.5 83 -0 31.9 0
18:41 1010 29.83 839 24.78 2.5 36.6 83 -0 31.9 0
18:42 1010 29.83 839 24.78 2.5 36.6 83 -0 31.9 0
18:43 1010 29.83 839 24.78 2.5 36.5 83 -0.1 31.9 0
18:44 1010 29.83 839 24.78 2.5 36.5 83 -0.1 31.8 0
18:45 1010 29.83 839 24.78 2.6 36.6 83 -0.1 31.8 0
18:46 1010 29.83 839 24.78 2.6 36.7 82 -0.1 31.8 0
18:47 1010 29.83 839 24.78 2.7 36.8 82 -0.1 31.8 0
18:48 1010 29.83 839 24.78 2.7 36.9 82 -0.1 31.8 0
18:49 1010 29.83 839 24.78 2.7 36.9 82 -0.1 31.8 0
18:50 1010 29.83 839 24.78 2.7 36.9 82 -0 31.9 0
18:51 1010 29.83 839 24.78 2.7 36.9 82 -0.1 31.9 0
18:52 1010 29.83 839 24.78 2.7 36.9 82 -0 31.9 0
18:53 1010 29.83 839 24.78 2.8 37 82 -0.1 31.9 0
18:54 1010 29.83 839 24.78 2.8 37 82 -0.1 31.9 0
18:55 1010 29.83 839 24.78 2.8 37 82 -0 32 0
18:56 1010 29.83 839 24.78 2.8 37 82 0 32 0
18:57 1010 29.83 839 24.78 2.7 36.9 82 -0 31.9 0
18:58 1010 29.83 839 24.78 2.7 36.9 82 -0 32 0
18:59 1010 29.83 839 24.78 2.7 36.9 82 -0 32 0
19:00 1010 29.83 839 24.78 2.7 36.8 82 -0 31.9 0
19:01 1010 29.83 839 24.78 2.7 36.8 83 0 32 0
19:02 1010 29.83 839 24.78 2.7 36.9 83 0 32.1 0
19:03 1010 29.83 839 24.78 2.7 36.9 83 0.1 32.2 0
19:04 1010 29.83 839 24.78 2.6 36.8 83 0.1 32.1 0
19:05 1010 29.83 839 24.78 2.6 36.8 83 0.1 32.2 0
19:06 1010 29.83 839 24.78 2.6 36.7 83 0 32.1 0
19:07 1010 29.83 839 24.78 2.6 36.7 83 0.1 32.1 0
19:08 1010 29.83 839 24.78 2.6 36.7 84 0.1 32.2 0
19:09 1010 29.83 839 24.78 2.6 36.7 83 0 32.1 0
19:10 1010 29.83 839 24.78 2.7 36.8 83 0.1 32.2 0
19:11 1010 29.83 839 24.78 2.6 36.7 83 0.1 32.2 0
19:12 1010 29.83 839 24.78 2.7 36.8 83 0.1 32.2 0
19:13 1010 29.83 839 24.78 2.6 36.7 83 0.1 32.2 0
19:14 1010 29.83 839 24.78 2.6 36.7 84 0.1 32.2 0
19:15 1010 29.83 839 24.78 2.6 36.7 84 0.1 32.3 0
19:16 1010 29.83 839 24.78 2.6 36.7 84 0.1 32.3 0
19:17 1010 29.83 839 24.78 2.6 36.7 84 0.1 32.2 0
19:18 1010 29.83 839 24.78 2.6 36.7 84 0.2 32.3 0
19:19 1010 29.83 839 24.78 2.5 36.6 84 0.1 32.3 0
19:20 1010 29.83 839 24.78 2.6 36.6 84 0.1 32.3 0
19:21 1010 29.83 839 24.78 2.6 36.6 84 0.2 32.4 0
19:22 1010 29.83 839 24.78 2.6 36.6 85 0.2 32.4 0
19:23 1010 29.83 839 24.78 2.6 36.6 84 0.2 32.3 0
19:24 1010 29.83 839 24.78 2.6 36.6 84 0.2 32.4 0
19:25 1010 29.83 839 24.78 2.5 36.6 84 0.2 32.3 0
19:26 1010 29.83 839 24.78 2.5 36.6 84 0.2 32.3 0
19:27 1010 29.83 839 24.78 2.5 36.5 85 0.2 32.3 0
19:28 1010 29.83 839 24.78 2.5 36.5 85 0.2 32.3 0
19:29 1010 29.83 839 24.78 2.5 36.4 85 0.2 32.3 0
19:30 1010 29.83 839 24.78 2.4 36.3 85 0.1 32.2 0
19:31 1010 29.83 839 24.78 2.4 36.3 85 0.1 32.2 0
19:32 1010 29.83 839 24.78 2.4 36.2 85 0.1 32.2 0
19:33 1010 29.83 839 24.78 2.4 36.4 85 0.1 32.2 0
19:34 1010 29.83 839 24.78 2.4 36.4 85 0.1 32.2 0
19:35 1010 29.83 839 24.78 2.5 36.4 85 0.1 32.2 0
19:36 1010 29.83 839 24.78 2.5 36.4 85 0.1 32.2 0
19:37 1010 29.83 839 24.78 2.5 36.4 84 0.1 32.2 0
19:38 1010 29.83 839 24.78 2.5 36.5 84 0.1 32.2 0
19:39 1010 29.83 839 24.78 2.5 36.5 84 0.1 32.2 0
19:40 1010 29.83 839 24.78 2.5 36.5 84 0.1 32.2 0
19:41 1010 29.83 839 24.78 2.5 36.5 84 0.1 32.2 0
19:42 1010 29.83 839 24.78 2.5 36.4 85 0.1 32.2 0
19:43 1010 29.83 839 24.78 2.5 36.4 85 0.1 32.3 0
19:44 1010 29.83 839 24.78 2.5 36.4 85 0.2 32.3 0
19:45 1010 29.83 839 24.78 2.5 36.4 85 0.1 32.2 0
19:46 1010 29.83 839 24.78 2.5 36.4 85 0.1 32.2 0
19:47 1010 29.83 839 24.78 2.4 36.4 85 0.1 32.2 0
19:48 1010 29.83 839 24.78 2.4 36.4 84 0.1 32.2 0
19:49 1010 29.83 839 24.78 2.5 36.5 84 0.1 32.2 0
19:50 1010 29.83 839 24.78 2.5 36.5 84 0.1 32.2 0
19:51 1010 29.83 839 24.78 2.5 36.4 84 0.1 32.2 0
19:52 1010 29.83 839 24.78 2.5 36.4 84 0.1 32.1 0
19:53 1010 29.83 839 24.78 2.5 36.5 84 0.1 32.2 0
19:54 1010 29.83 839 24.78 2.5 36.5 84 0.1 32.1 0
19:55 1010 29.83 839 24.78 2.5 36.6 84 0.1 32.1 0
19:56 1010 29.83 839 24.78 2.5 36.5 84 0.1 32.1 0
19:57 1010 29.83 839 24.78 2.6 36.6 84 0.1 32.2 0
19:58 1010 29.83 839 24.78 2.5 36.6 84 0.2 32.3 0
19:59 1010 29.83 839 24.78 2.5 36.5 84 0.1 32.2 0
20:00 1010 29.83 839 24.78 2.5 36.5 84 0.1 32.1 0
20:01 1010 29.83 839 24.78 2.5 36.5 84 0.1 32.2 0
20:02 1010 29.83 839 24.78 2.5 36.4 84 0.1 32.2 0
20:03 1010 29.83 839 24.78 2.5 36.4 84 0.1 32.2 0
20:04 1010 29.83 839 24.78 2.5 36.4 84 0.1 32.2 0
20:05 1010 29.83 839 24.78 2.5 36.4 84 0.1 32.2 0
20:06 1010 29.83 839 24.78 2.4 36.4 84 0.1 32.1 0
20:07 1010 29.83 839 24.78 2.4 36.4 85 0.1 32.2 0
20:08 1010 29.83 839 24.78 2.4 36.4 84 0.1 32.1 0
20:09 1010 29.83 839 24.78 2.4 36.4 85 0.1 32.2 0
20:10 1010 29.83 839 24.78 2.4 36.4 85 0.1 32.2 0
20:11 1010 29.83 839 24.78 2.4 36.4 85 0.1 32.2 0
20:12 1010 29.83 839 24.78 2.4 36.4 85 0.1 32.2 0
20:13 1010 29.83 839 24.78 2.4 36.3 85 0.1 32.2 0
20:14 1010 29.83 839 24.78 2.4 36.3 85 0.1 32.2 0
20:15 1010 29.83 839 24.78 2.3 36.2 85 0.1 32.2 0
20:16 1010 29.83 839 24.78 2.3 36.1 85 0.1 32.2 0
20:17 1010 29.83 839 24.78 2.3 36.2 85 0.1 32.2 0
20:18 1010 29.83 839 24.78 2.3 36.1 86 0.1 32.2 0
20:19 1010 29.83 839 24.78 2.3 36.1 86 0.1 32.2 0
20:20 1010 29.83 839 24.78 2.2 36 86 0.1 32.2 0
20:21 1010 29.83 839 24.78 2.3 36.1 86 0.2 32.3 0
20:22 1010 29.83 839 24.78 2.2 36 86 0.1 32.1 0
20:23 1010 29.83 839 24.78 2.2 36 86 0.1 32.2 0
20:24 1010 29.83 839 24.78 2.2 35.9 86 0.1 32.2 0
20:25 1010 29.83 839 24.78 2.1 35.9 86 0.1 32.2 0
20:26 1010 29.83 839 24.78 2.1 35.8 87 0.1 32.2 0
20:27 1010 29.83 839 24.78 2.1 35.8 87 0.1 32.2 0
20:28 1010 29.83 839 24.78 2.1 35.7 87 0.1 32.2 0
20:29 1010 29.83 839 24.78 2.1 35.8 87 0.1 32.1 0
20:30 1010 29.83 839 24.78 2.1 35.8 87 0.1 32.2 0
20:31 1010 29.83 839 24.78 2.1 35.7 87 0.1 32.1 0
20:32 1010 29.83 839 24.78 2 35.7 86 0 32 0
20:33 1010 29.83 839 24.78 2.1 35.7 86 -0 32 0
20:34 1010 29.83 839 24.78 2.1 35.7 86 0 32 0
20:35 1010 29.83 839 24.78 2 35.7 87 0 32.1 0
20:36 1010 29.83 839 24.78 2 35.5 87 -0 31.9 0
20:37 1010 29.83 839 24.78 2 35.6 87 -0 32 0
20:38 1010 29.83 840 24.81 2 35.5 86 -0.1 31.9 0
20:39 1010 29.83 840 24.81 2 35.5 86 -0.1 31.9 0
20:40 1010 29.83 840 24.81 2 35.6 86 -0.1 31.9 0
20:41 1010 29.83 840 24.81 1.9 35.4 86 -0.1 31.8 0
20:42 1010 29.83 840 24.81 1.9 35.4 86 -0.2 31.7 0
20:43 1010 29.83 840 24.81 1.8 35.2 87 -0.2 31.6 0
20:44 1010 29.83 840 24.81 1.7 35.1 87 -0.2 31.6 0
20:45 1010 29.83 840 24.81 1.7 35.1 87 -0.2 31.6 0
20:46 1010 29.83 840 24.81 1.6 34.9 87 -0.3 31.5 0
20:47 1010 29.83 840 24.81 1.6 34.9 87 -0.3 31.5 0
20:48 1010 29.83 840 24.81 1.6 34.8 87 -0.3 31.5 0
20:49 1010 29.83 840 24.81 1.5 34.8 87 -0.3 31.4 0
20:50 1010 29.83 840 24.81 1.5 34.8 87 -0.3 31.4 0
20:51 1010 29.83 840 24.81 1.6 34.8 87 -0.3 31.4 0
20:52 1010 29.83 840 24.81 1.6 34.9 87 -0.3 31.5 0
20:53 1010 29.83 840 24.81 1.6 34.8 87 -0.3 31.4 0
20:54 1010 29.83 840 24.81 1.5 34.8 87 -0.3 31.4 0
20:55 1010 29.83 840 24.81 1.5 34.8 87 -0.4 31.4 0
20:56 1010 29.83 840 24.81 1.5 34.7 88 -0.4 31.4 0
20:57 1010 29.83 840 24.81 1.4 34.6 88 -0.4 31.4 0
20:58 1010 29.83 840 24.81 1.4 34.6 88 -0.3 31.4 0
20:59 1011 29.85 840 24.81 1.4 34.5 88 -0.3 31.4 0
21:00 1011 29.85 840 24.81 1.4 34.4 88 -0.4 31.3 0
21:01 1011 29.85 840 24.81 1.3 34.4 88 -0.4 31.3 0
21:02 1011 29.85 840 24.81 1.4 34.5 89 -0.3 31.4 0
21:03 1011 29.85 840 24.81 1.4 34.4 88 -0.4 31.4 0
21:04 1011 29.85 840 24.81 1.4 34.4 89 -0.3 31.4 0
21:05 1011 29.85 840 24.81 1.3 34.4 89 -0.3 31.4 0
21:06 1011 29.85 840 24.81 1.3 34.3 89 -0.4 31.3 0
21:07 1011 29.85 840 24.81 1.1 34.1 89 -0.4 31.2 0
21:08 1011 29.85 840 24.81 0.8 33.4 91 -0.5 31.1 0
21:09 1011 29.85 840 24.81 0.5 33 92 -0.6 30.9 0
21:10 1011 29.85 840 24.81 0.4 32.7 93 -0.7 30.8 0
21:11 1011 29.85 840 24.81 0.2 32.4 93 -0.7 30.7 0
21:12 1011 29.85 840 24.81 0.1 32.2 94 -0.8 30.6 0
21:13 1011 29.85 840 24.81 -0 32 94 -0.8 30.5 0
21:14 1011 29.85 840 24.81 -0 31.9 94 -0.9 30.4 0
21:15 1011 29.85 840 24.81 -0.2 31.7 94 -1 30.3 0
21:16 1011 29.85 840 24.81 -0.3 31.5 95 -1 30.2 0
21:17 1011 29.85 840 24.81 -0.4 31.3 95 -1.1 30 0
21:18 1011 29.85 840 24.81 -0.4 31.2 95 -1.1 30 0
21:19 1011 29.85 840 24.81 -0.5 31.1 95 -1.2 29.9 0
21:20 1011 29.85 840 24.81 -0.5 31 96 -1.2 29.9 0
21:21 1011 29.85 840 24.81 -0.6 30.9 96 -1.2 29.8 0
21:22 1011 29.85 840 24.81 -0.6 30.9 96 -1.2 29.8 0
21:23 1011 29.85 840 24.81 -0.6 30.9 96 -1.2 29.8 0
21:24 1011 29.85 840 24.81 -0.7 30.8 96 -1.3 29.7 0
21:25 1011 29.85 840 24.81 -0.7 30.7 96 -1.3 29.7 0
21:26 1011 29.85 840 24.81 -0.7 30.7 96 -1.3 29.6 0
21:27 1011 29.85 840 24.81 -0.8 30.6 96 -1.3 29.6 0
21:28 1011 29.85 840 24.81 -0.8 30.6 96 -1.3 29.7 0
21:29 1011 29.85 840 24.81 -0.8 30.6 96 -1.3 29.7 0
21:30 1011 29.85 840 24.81 -0.8 30.6 96 -1.3 29.7 0
21:31 1011 29.85 840 24.81 -0.8 30.6 97 -1.3 29.7 0
21:32 1011 29.85 840 24.81 -0.8 30.5 97 -1.3 29.7 0
21:33 1011 29.85 840 24.81 -0.8 30.6 97 -1.2 29.8 0
21:34 1011 29.85 840 24.81 -0.8 30.5 97 -1.3 29.7 0
21:35 1011 29.85 840 24.81 -0.8 30.5 97 -1.3 29.7 0
21:36 1011 29.85 840 24.81 -0.8 30.5 97 -1.3 29.6 0
21:37 1011 29.85 840 24.81 -0.9 30.4 97 -1.3 29.6 0
21:38 1011 29.85 840 24.81 -0.9 30.4 97 -1.3 29.6 0
21:39 1011 29.85 840 24.81 -0.8 30.5 97 -1.3 29.6 0
21:40 1011 29.85 840 24.81 -0.9 30.4 97 -1.3 29.6 0
21:41 1011 29.85 840 24.81 -0.9 30.4 97 -1.4 29.5 0
21:42 1011 29.85 840 24.81 -0.9 30.4 97 -1.4 29.5 0
21:43 1011 29.85 840 24.81 -0.9 30.3 96 -1.4 29.4 0
21:44 1011 29.85 840 24.81 -0.9 30.3 97 -1.4 29.5 0
21:45 1011 29.85 840 24.81 -1 30.2 97 -1.5 29.4 0
21:46 1011 29.85 840 24.81 -1 30.3 97 -1.4 29.4 0
21:47 1011 29.85 840 24.81 -1 30.3 97 -1.4 29.4 0
21:48 1011 29.85 840 24.81 -1 30.2 97 -1.5 29.4 0
21:49 1011 29.85 840 24.81 -1 30.2 96 -1.5 29.3 0
21:50 1011 29.85 840 24.81 -1 30.2 97 -1.5 29.3 0
21:51 1011 29.85 840 24.81 -1 30.2 97 -1.4 29.4 0
21:52 1011 29.85 840 24.81 -1 30.2 97 -1.5 29.4 0
21:53 1011 29.85 840 24.81 -1 30.2 97 -1.5 29.4 0
21:54 1011 29.85 840 24.81 -1 30.2 97 -1.4 29.4 0
21:55 1011 29.85 840 24.81 -0.9 30.3 97 -1.4 29.5 0
21:56 1011 29.85 840 24.81 -1 30.3 97 -1.4 29.4 0
21:57 1011 29.85 840 24.81 -0.9 30.3 96 -1.4 29.4 0
21:58 1011 29.85 840 24.81 -1 30.2 96 -1.5 29.3 0
21:59 1011 29.85 840 24.81 -1 30.2 96 -1.5 29.3 0
22:00 1011 29.85 840 24.81 -1 30.2 96 -1.5 29.3 0
22:01 1011 29.85 840 24.81 -0.9 30.3 96 -1.4 29.4 0
22:02 1011 29.85 840 24.81 -0.9 30.3 97 -1.4 29.5 0
22:03 1011 29.85 840 24.81 -1 30.3 96 -1.5 29.3 0
22:04 1011 29.85 840 24.81 -0.9 30.3 96 -1.5 29.4 0
22:05 1011 29.85 840 24.81 -0.9 30.3 96 -1.4 29.4 0
22:06 1011 29.85 840 24.81 -0.9 30.4 96 -1.5 29.4 0
22:07 1011 29.85 840 24.81 -0.9 30.4 96 -1.5 29.3 0
22:08 1011 29.85 840 24.81 -0.9 30.3 96 -1.5 29.3 0
22:09 1011 29.85 840 24.81 -0.9 30.4 96 -1.5 29.4 0
22:10 1011 29.85 840 24.81 -0.9 30.4 96 -1.5 29.4 0
22:11 1011 29.85 840 24.81 -0.9 30.3 96 -1.5 29.3 0
22:12 1011 29.85 840 24.81 -0.9 30.4 96 -1.4 29.4 0
22:13 1011 29.85 840 24.81 -0.9 30.4 96 -1.5 29.4 0
22:14 1011 29.85 840 24.81 -0.9 30.3 96 -1.5 29.3 0
22:15 1011 29.85 840 24.81 -1 30.3 96 -1.5 29.3 0
22:16 1011 29.85 840 24.81 -1 30.3 96 -1.5 29.3 0
22:17 1011 29.85 840 24.81 -1 30.3 96 -1.5 29.3 0
22:18 1011 29.85 840 24.81 -1 30.3 96 -1.5 29.3 0
22:19 1011 29.85 840 24.81 -1 30.2 96 -1.5 29.2 0
22:20 1011 29.85 840 24.81 -1 30.2 96 -1.5 29.3 0
22:21 1011 29.85 840 24.81 -1 30.1 97 -1.5 29.3 0
22:22 1011 29.85 840 24.81 -1.1 30.1 96 -1.6 29.1 0
22:23 1011 29.85 840 24.81 -1.1 30 96 -1.6 29.1 0
22:24 1011 29.85 840 24.81 -1.1 30 97 -1.6 29.2 0
22:25 1011 29.85 840 24.81 -1.1 30 97 -1.6 29.2 0
22:26 1011 29.85 840 24.81 -1.1 30 97 -1.6 29.2 0
22:27 1011 29.85 840 24.81 -1.1 30 97 -1.5 29.2 0
22:28 1011 29.85 840 24.81 -1.1 30 97 -1.6 29.1 0
22:29 1011 29.85 840 24.81 -1.2 29.9 97 -1.6 29.1 0
22:30 1011 29.85 840 24.81 -1.2 29.9 97 -1.7 29 0
22:31 1011 29.85 840 24.81 -1.2 29.9 97 -1.6 29.1 0
22:32 1011 29.85 841 24.83 -1.2 29.8 97 -1.7 29 0
22:33 1011 29.85 840 24.81 -1.3 29.7 97 -1.7 28.9 0
22:34 1011 29.85 840 24.81 -1.3 29.7 97 -1.7 28.9 0
22:35 1011 29.85 840 24.81 -1.3 29.6 97 -1.8 28.7 0
22:36 1011 29.85 840 24.81 -1.4 29.4 97 -1.9 28.6 0
22:37 1011 29.85 840 24.81 -1.5 29.3 96 -2 28.4 0
22:38 1011 29.85 841 24.83 -1.7 29 96 -2.2 28 0
22:39 1011 29.85 841 24.83 -1.8 28.7 96 -2.4 27.6 0
22:40 1011 29.85 841 24.83 -1.9 28.5 96 -2.5 27.6 0
22:41 1011 29.85 841 24.83 -2 28.3 96 -2.5 27.4 0
22:42 1011 29.85 841 24.83 -2.1 28.2 97 -2.6 27.4 0
22:43 1011 29.85 841 24.83 -2.2 28.1 97 -2.6 27.2 0
22:44 1011 29.85 841 24.83 -2.2 28 97 -2.6 27.2 0
22:45 1011 29.85 841 24.83 -2.2 28 97 -2.6 27.3 0
22:46 1011 29.85 841 24.83 -2.2 28 97 -2.6 27.3 0
22:47 1011 29.85 841 24.83 -2.3 27.8 97 -2.8 26.9 0
22:48 1011 29.85 841 24.83 -2.4 27.6 96 -2.9 26.7 0
22:49 1011 29.85 841 24.83 -2.6 27.4 96 -3.1 26.4 0
22:50 1011 29.85 841 24.83 -2.6 27.2 97 -3.1 26.4 0
22:51 1011 29.85 841 24.83 -2.7 27.2 97 -3.1 26.5 0
22:52 1011 29.85 841 24.83 -2.7 27.2 97 -3.1 26.5 0
22:53 1011 29.85 841 24.83 -2.7 27.2 97 -3.1 26.4 0
22:54 1011 29.85 841 24.83 -2.8 27 97 -3.2 26.3 0
22:55 1011 29.85 841 24.83 -2.8 26.9 97 -3.3 26.1 0
22:56 1011 29.85 841 24.83 -2.8 26.9 97 -3.3 26.1 0
22:57 1011 29.85 841 24.83 -2.9 26.8 97 -3.3 26 0
22:58 1012 29.88 841 24.83 -2.9 26.8 97 -3.3 26 0
22:59 1012 29.88 841 24.83 -2.9 26.7 97 -3.4 25.9 0
23:00 1012 29.88 841 24.83 -3 26.6 97 -3.4 25.9 0
23:01 1012 29.88 841 24.83 -3 26.7 97 -3.4 25.9 0
23:02 1012 29.88 841 24.83 -3 26.7 97 -3.3 26 0
23:03 1012 29.88 841 24.83 -3 26.6 97 -3.4 25.9 0
23:04 1012 29.88 841 24.83 -3 26.6 97 -3.4 25.9 0
23:05 1011 29.85 841 24.83 -3 26.6 97 -3.4 26 0
23:06 1011 29.85 841 24.83 -2.9 26.7 97 -3.3 26 0
23:07 1012 29.88 841 24.83 -2.9 26.7 97 -3.3 26 0
23:08 1012 29.88 841 24.83 -2.9 26.7 97 -3.3 26 0
23:09 1012 29.88 841 24.83 -3 26.6 97 -3.4 25.9 0
23:10 1012 29.88 841 24.83 -2.9 26.7 97 -3.3 26.1 0
23:11 1012 29.88 841 24.83 -2.9 26.8 97 -3.2 26.2 0
23:12 1012 29.88 841 24.83 -2.9 26.8 97 -3.3 26.1 0
23:13 1012 29.88 841 24.83 -2.9 26.8 97 -3.3 26.1 0
23:14 1012 29.88 841 24.83 -2.9 26.8 97 -3.4 25.9 0
23:15 1012 29.88 841 24.83 -2.9 26.7 97 -3.4 25.8 0
23:16 1012 29.88 841 24.83 -3 26.5 97 -3.5 25.7 0
23:17 1012 29.88 841 24.83 -3.1 26.5 97 -3.5 25.6 0
23:18 1012 29.88 841 24.83 -3.1 26.4 97 -3.5 25.6 0
23:19 1012 29.88 841 24.83 -3.2 26.3 97 -3.6 25.5 0
23:20 1012 29.88 841 24.83 -3.2 26.3 97 -3.6 25.5 0
23:21 1012 29.88 841 24.83 -3.2 26.2 97 -3.6 25.5 0
23:22 1012 29.88 841 24.83 -3.2 26.2 96 -3.7 25.3 0
23:23 1012 29.88 841 24.83 -3.3 26.1 97 -3.8 25.2 0
23:24 1012 29.88 841 24.83 -3.4 25.9 96 -3.9 24.9 0
23:25 1012 29.88 841 24.83 -3.5 25.7 96 -4.1 24.7 0
23:26 1012 29.88 841 24.83 -3.6 25.5 96 -4.2 24.4 0
23:27 1012 29.88 841 24.83 -3.7 25.4 96 -4.2 24.4 0
23:28 1012 29.88 841 24.83 -3.7 25.3 96 -4.2 24.4 0
23:29 1012 29.88 841 24.83 -3.8 25.2 96 -4.3 24.3 0
23:30 1012 29.88 841 24.83 -3.8 25.1 96 -4.4 24.1 0
23:31 1012 29.88 841 24.83 -3.9 25 96 -4.4 24.1 0
23:32 1012 29.88 841 24.83 -3.9 24.9 97 -4.4 24.1 0
23:33 1012 29.88 841 24.83 -4 24.9 96 -4.5 24 0
23:34 1012 29.88 841 24.83 -4 24.8 96 -4.5 23.8 0
23:35 1012 29.88 841 24.83 -4.1 24.7 96 -4.6 23.8 0
23:36 1012 29.88 841 24.83 -4.1 24.6 96 -4.7 23.6 0
23:37 1012 29.88 841 24.83 -4.2 24.5 96 -4.7 23.6 0
23:38 1012 29.88 841 24.83 -4.2 24.4 96 -4.7 23.5 0
23:39 1012 29.88 841 24.83 -4.3 24.4 96 -4.8 23.4 0
23:40 1012 29.88 841 24.83 -4.3 24.2 97 -4.8 23.4 0
23:41 1012 29.88 841 24.83 -4.3 24.2 96 -4.8 23.3 0
23:42 1012 29.88 841 24.83 -4.4 24.1 96 -4.9 23.1 0
23:43 1012 29.88 841 24.83 -4.4 24.1 96 -4.9 23.2 0
23:44 1012 29.88 841 24.83 -4.4 24 97 -4.9 23.2 0
23:45 1012 29.88 841 24.83 -4.4 24 96 -5 23.1 0
23:46 1012 29.88 841 24.83 -4.5 23.9 97 -4.9 23.1 0
23:47 1012 29.88 841 24.83 -4.5 24 96 -5 23.1 0
23:48 1012 29.88 841 24.83 -4.5 23.9 96 -5.1 22.9 0
23:49 1012 29.88 841 24.83 -4.6 23.8 96 -5.1 22.8 0
23:50 1012 29.88 841 24.83 -4.6 23.7 96 -5.1 22.8 0
23:51 1012 29.88 841 24.83 -4.6 23.7 96 -5.2 22.7 0
23:52 1012 29.88 841 24.83 -4.7 23.6 96 -5.2 22.6 0
23:53 1012 29.88 841 24.83 -4.7 23.5 96 -5.2 22.6 0
23:54 1012 29.88 841 24.83 -4.7 23.5 96 -5.2 22.6 0
23:55 1012 29.88 841 24.83 -4.7 23.5 96 -5.3 22.5 0
23:56 1012 29.88 841 24.83 -4.7 23.5 96 -5.2 22.6 0
23:57 1012 29.88 841 24.83 -4.7 23.5 97 -5.2 22.7 0
23:58 1012 29.88 841 24.83 -4.7 23.5 96 -5.3 22.5 0
23:59 1012 29.88 841 24.83 -4.7 23.5 96 -5.3 22.5 0
24:00 1012 29.88 841 24.83 -4.8 23.4 96 -5.3 22.5 0